Observation data for Sweetwater on 07/03/2020      Previous  Date  Next       Current Mesonet Observations  Soil Data  Daily Summary Page  Observations in Plain Language
KSW1 030500Z 12009KT 28/15 A3004 RMK A01 T02760148  RH  045%=      5-min Rain = 0
KSW1 030501Z 12010KT 28/15 A3005 RMK A01 T02760148  RH  046%=      5-min Rain = 0
KSW1 030502Z 12009KT 28/15 A3005 RMK A01 T02750149  RH  046%=      5-min Rain = 0
KSW1 030503Z 12009KT 28/15 A3005 RMK A01 T02750149  RH  046%=      5-min Rain = 0
KSW1 030504Z 12009KT 28/15 A3005 RMK A01 T02750150  RH  047%=      5-min Rain = 0
KSW1 030505Z 12009KT 28/15 A3005 RMK A01 T02750150  RH  047%=      5-min Rain = 0
KSW1 030506Z 12008KT 28/15 A3005 RMK A01 T02760151  RH  047%=      5-min Rain = 0
KSW1 030507Z 13008KT 28/15 A3005 RMK A01 T02760151  RH  047%=      5-min Rain = 0
KSW1 030508Z 12009KT 28/15 A3005 RMK A01 T02760152  RH  046%=      5-min Rain = 0
KSW1 030509Z 13008KT 28/15 A3005 RMK A01 T02770152  RH  047%=      5-min Rain = 0
KSW1 030510Z 13008KT 28/15 A3005 RMK A01 T02770153  RH  047%=      5-min Rain = 0
KSW1 030511Z 13008KT 28/15 A3005 RMK A01 T02770153  RH  047%=      5-min Rain = 0
KSW1 030512Z 13008KT 28/15 A3005 RMK A01 T02760153  RH  047%=      5-min Rain = 0
KSW1 030513Z 13008KT 28/15 A3005 RMK A01 T02760153  RH  047%=      5-min Rain = 0
KSW1 030514Z 13007KT 28/15 A3005 RMK A01 T02760153  RH  047%=      5-min Rain = 0
KSW1 030515Z 13008KT 28/15 A3005 RMK A01 T02760153  RH  047%=      5-min Rain = 0
KSW1 030516Z 13008KT 28/15 A3005 RMK A01 T02760153  RH  047%=      5-min Rain = 0
KSW1 030517Z 13008KT 28/15 A3004 RMK A01 T02760153  RH  047%=      5-min Rain = 0
KSW1 030518Z 13008KT 28/15 A3004 RMK A01 T02760152  RH  047%=      5-min Rain = 0
KSW1 030519Z 13008KT 28/15 A3004 RMK A01 T02760152  RH  047%=      5-min Rain = 0
KSW1 030520Z 13008KT 28/15 A3004 RMK A01 T02770152  RH  047%=      5-min Rain = 0
KSW1 030521Z 14008KT 28/15 A3004 RMK A01 T02760152  RH  047%=      5-min Rain = 0
KSW1 030522Z 14007KT 28/15 A3004 RMK A01 T02760152  RH  047%=      5-min Rain = 0
KSW1 030523Z 14007KT 28/15 A3004 RMK A01 T02760153  RH  047%=      5-min Rain = 0
KSW1 030524Z 14007KT 28/15 A3004 RMK A01 T02750152  RH  047%=      5-min Rain = 0
KSW1 030525Z 14007KT 27/15 A3004 RMK A01 T02740152  RH  047%=      5-min Rain = 0
KSW1 030526Z 13007KT 27/15 A3004 RMK A01 T02730152  RH  047%=      5-min Rain = 0
KSW1 030527Z 13007KT 27/15 A3004 RMK A01 T02730152  RH  048%=      5-min Rain = 0
KSW1 030528Z 14006KT 27/15 A3004 RMK A01 T02720152  RH  048%=      5-min Rain = 0
KSW1 030529Z 14007KT 27/15 A3004 RMK A01 T02720152  RH  048%=      5-min Rain = 0
KSW1 030530Z 14007KT 27/15 A3004 RMK A01 T02710152  RH  048%=      5-min Rain = 0
KSW1 030531Z 13007KT 27/15 A3004 RMK A01 T02710152  RH  048%=      5-min Rain = 0
KSW1 030532Z 14007KT 27/15 A3004 RMK A01 T02710151  RH  048%=      5-min Rain = 0
KSW1 030533Z 14007KT 27/15 A3004 RMK A01 T02700152  RH  048%=      5-min Rain = 0
KSW1 030534Z 14007KT 27/15 A3004 RMK A01 T02690151  RH  048%=      5-min Rain = 0
KSW1 030535Z 14007KT 27/15 A3004 RMK A01 T02690151  RH  049%=      5-min Rain = 0
KSW1 030536Z 13007KT 27/15 A3004 RMK A01 T02680151  RH  049%=      5-min Rain = 0
KSW1 030537Z 13007KT 27/15 A3004 RMK A01 T02680151  RH  049%=      5-min Rain = 0
KSW1 030538Z 13007KT 27/15 A3005 RMK A01 T02680151  RH  049%=      5-min Rain = 0
KSW1 030539Z 13007KT 27/15 A3005 RMK A01 T02670151  RH  049%=      5-min Rain = 0
KSW1 030540Z 13008KT 27/15 A3005 RMK A01 T02670151  RH  049%=      5-min Rain = 0
KSW1 030541Z 13008KT 27/15 A3005 RMK A01 T02670151  RH  049%=      5-min Rain = 0
KSW1 030542Z 13008KT 27/15 A3005 RMK A01 T02670151  RH  049%=      5-min Rain = 0
KSW1 030543Z 13007KT 27/15 A3005 RMK A01 T02670150  RH  049%=      5-min Rain = 0
KSW1 030544Z 13007KT 27/15 A3005 RMK A01 T02670150  RH  049%=      5-min Rain = 0
KSW1 030545Z 13008KT 27/15 A3005 RMK A01 T02660150  RH  049%=      5-min Rain = 0
KSW1 030546Z 13008KT 27/15 A3005 RMK A01 T02660150  RH  049%=      5-min Rain = 0
KSW1 030547Z 14008KT 27/15 A3005 RMK A01 T02660150  RH  049%=      5-min Rain = 0
KSW1 030548Z 14008KT 27/15 A3005 RMK A01 T02650150  RH  049%=      5-min Rain = 0
KSW1 030549Z 14008KT 27/15 A3005 RMK A01 T02650150  RH  049%=      5-min Rain = 0
KSW1 030550Z 14008KT 27/15 A3005 RMK A01 T02650150  RH  049%=      5-min Rain = 0
KSW1 030551Z 14008KT 27/15 A3005 RMK A01 T02650150  RH  049%=      5-min Rain = 0
KSW1 030552Z 14008KT 27/15 A3005 RMK A01 T02650149  RH  049%=      5-min Rain = 0
KSW1 030553Z 14008KT 27/15 A3005 RMK A01 T02650149  RH  049%=      5-min Rain = 0
KSW1 030554Z 14007KT 27/15 A3005 RMK A01 T02650149  RH  049%=      5-min Rain = 0
KSW1 030555Z 14008KT 27/15 A3005 RMK A01 T02650149  RH  049%=      5-min Rain = 0
KSW1 030556Z 13008KT 26/15 A3005 RMK A01 T02640149  RH  049%=      5-min Rain = 0
KSW1 030557Z 14008KT 26/15 A3005 RMK A01 T02640149  RH  049%=      5-min Rain = 0
KSW1 030558Z 13007KT 26/15 A3005 RMK A01 T02640149  RH  049%=      5-min Rain = 0
KSW1 030559Z 13007KT 26/15 A3005 RMK A01 T02630149  RH  049%=      5-min Rain = 0
KSW1 030600Z 14008KT 26/15 A3005 RMK A01 T02620149  RH  050%=      5-min Rain = 0
KSW1 030601Z 14007KT 26/15 A3005 RMK A01 T02630149  RH  050%=      5-min Rain = 0
KSW1 030602Z 14007KT 26/15 A3005 RMK A01 T02620149  RH  050%=      5-min Rain = 0
KSW1 030603Z 14008KT 26/15 A3004 RMK A01 T02620149  RH  050%=      5-min Rain = 0
KSW1 030604Z 14007KT 26/15 A3004 RMK A01 T02620149  RH  050%=      5-min Rain = 0
KSW1 030605Z 14008KT 26/15 A3004 RMK A01 T02620148  RH  049%=      5-min Rain = 0
KSW1 030606Z 14008KT 26/15 A3004 RMK A01 T02620148  RH  049%=      5-min Rain = 0
KSW1 030607Z 14007KT 26/15 A3004 RMK A01 T02620148  RH  049%=      5-min Rain = 0
KSW1 030608Z 14007KT 26/15 A3004 RMK A01 T02620148  RH  049%=      5-min Rain = 0
KSW1 030609Z 14007KT 26/15 A3004 RMK A01 T02620148  RH  049%=      5-min Rain = 0
KSW1 030610Z 14007KT 26/15 A3004 RMK A01 T02620147  RH  049%=      5-min Rain = 0
KSW1 030611Z 14007KT 26/15 A3004 RMK A01 T02620147  RH  049%=      5-min Rain = 0
KSW1 030612Z 14007KT 26/15 A3004 RMK A01 T02620147  RH  049%=      5-min Rain = 0
KSW1 030613Z 14007KT 26/15 A3004 RMK A01 T02610147  RH  049%=      5-min Rain = 0
KSW1 030614Z 14007KT 26/15 A3004 RMK A01 T02610147  RH  050%=      5-min Rain = 0
KSW1 030615Z 14007KT 26/15 A3004 RMK A01 T02600147  RH  050%=      5-min Rain = 0
KSW1 030616Z 14007KT 26/15 A3004 RMK A01 T02600147  RH  050%=      5-min Rain = 0
KSW1 030617Z 14008KT 26/15 A3004 RMK A01 T02600147  RH  050%=      5-min Rain = 0
KSW1 030618Z 14008KT 26/15 A3004 RMK A01 T02600147  RH  050%=      5-min Rain = 0
KSW1 030619Z 14008KT 26/15 A3004 RMK A01 T02600146  RH  049%=      5-min Rain = 0
KSW1 030620Z 14008KT 26/15 A3003 RMK A01 T02600145  RH  049%=      5-min Rain = 0
KSW1 030621Z 14008KT 26/15 A3003 RMK A01 T02610146  RH  049%=      5-min Rain = 0
KSW1 030622Z 14008KT 26/15 A3003 RMK A01 T02610146  RH  049%=      5-min Rain = 0
KSW1 030623Z 14009KT 26/15 A3003 RMK A01 T02610145  RH  049%=      5-min Rain = 0
KSW1 030624Z 14008KT 26/15 A3003 RMK A01 T02620146  RH  049%=      5-min Rain = 0
KSW1 030625Z 14008KT 26/15 A3003 RMK A01 T02620145  RH  049%=      5-min Rain = 0
KSW1 030626Z 14008KT 26/15 A3003 RMK A01 T02620146  RH  049%=      5-min Rain = 0
KSW1 030627Z 14008KT 26/15 A3003 RMK A01 T02620146  RH  049%=      5-min Rain = 0
KSW1 030628Z 14008KT 26/15 A3003 RMK A01 T02620146  RH  049%=      5-min Rain = 0
KSW1 030629Z 14008KT 26/15 A3003 RMK A01 T02620146  RH  049%=      5-min Rain = 0
KSW1 030630Z 14008KT 26/15 A3003 RMK A01 T02620146  RH  049%=      5-min Rain = 0
KSW1 030631Z 14008KT 26/15 A3003 RMK A01 T02620146  RH  049%=      5-min Rain = 0
KSW1 030632Z 15008KT 26/15 A3003 RMK A01 T02630146  RH  049%=      5-min Rain = 0
KSW1 030633Z 15008KT 26/15 A3003 RMK A01 T02630146  RH  049%=      5-min Rain = 0
KSW1 030634Z 15008KT 26/15 A3003 RMK A01 T02630146  RH  049%=      5-min Rain = 0
KSW1 030635Z 15008KT 26/15 A3002 RMK A01 T02630147  RH  049%=      5-min Rain = 0
KSW1 030636Z 15008KT 26/15 A3002 RMK A01 T02630147  RH  049%=      5-min Rain = 0
KSW1 030637Z 15008KT 26/15 A3002 RMK A01 T02620147  RH  049%=      5-min Rain = 0
KSW1 030638Z 16009KT 26/15 A3002 RMK A01 T02630147  RH  049%=      5-min Rain = 0
KSW1 030639Z 16008KT 26/15 A3002 RMK A01 T02630147  RH  049%=      5-min Rain = 0
KSW1 030640Z 16009KT 26/15 A3002 RMK A01 T02630148  RH  049%=      5-min Rain = 0
KSW1 030641Z 16008KT 26/15 A3002 RMK A01 T02620148  RH  049%=      5-min Rain = 0
KSW1 030642Z 16009KT 26/15 A3002 RMK A01 T02610148  RH  050%=      5-min Rain = 0
KSW1 030643Z 16009KT 26/15 A3001 RMK A01 T02600148  RH  050%=      5-min Rain = 0
KSW1 030644Z 16009KT 26/15 A3001 RMK A01 T02590149  RH  050%=      5-min Rain = 0
KSW1 030645Z 16009KT 26/15 A3001 RMK A01 T02590149  RH  051%=      5-min Rain = 0
KSW1 030646Z 16008KT 26/15 A3001 RMK A01 T02590149  RH  051%=      5-min Rain = 0
KSW1 030647Z 16008KT 26/15 A3001 RMK A01 T02590150  RH  051%=      5-min Rain = 0
KSW1 030648Z 16009KT 26/15 A3001 RMK A01 T02590150  RH  051%=      5-min Rain = 0
KSW1 030649Z 16008KT 26/15 A3001 RMK A01 T02590150  RH  051%=      5-min Rain = 0
KSW1 030650Z 16007KT 26/15 A3001 RMK A01 T02590150  RH  051%=      5-min Rain = 0
KSW1 030651Z 16008KT 26/15 A3001 RMK A01 T02590150  RH  051%=      5-min Rain = 0
KSW1 030652Z 16009KT 26/15 A3001 RMK A01 T02600150  RH  051%=      5-min Rain = 0
KSW1 030653Z 16008KT 26/15 A3001 RMK A01 T02610150  RH  051%=      5-min Rain = 0
KSW1 030654Z 15007KT 26/15 A3001 RMK A01 T02610150  RH  050%=      5-min Rain = 0
KSW1 030655Z 15007KT 26/15 A3002 RMK A01 T02620151  RH  050%=      5-min Rain = 0
KSW1 030656Z 15007KT 26/15 A3002 RMK A01 T02620151  RH  050%=      5-min Rain = 0
KSW1 030657Z 15008KT 26/15 A3002 RMK A01 T02620151  RH  050%=      5-min Rain = 0
KSW1 030658Z 15008KT 26/15 A3002 RMK A01 T02620151  RH  050%=      5-min Rain = 0
KSW1 030659Z 15007KT 26/15 A3002 RMK A01 T02610151  RH  051%=      5-min Rain = 0
KSW1 030700Z 15007KT 26/15 A3002 RMK A01 T02610151  RH  051%=      5-min Rain = 0
KSW1 030701Z 15008KT 26/15 A3002 RMK A01 T02610151  RH  051%=      5-min Rain = 0
KSW1 030702Z 15007KT 26/15 A3002 RMK A01 T02610151  RH  051%=      5-min Rain = 0
KSW1 030703Z 15008KT 26/15 A3002 RMK A01 T02600151  RH  051%=      5-min Rain = 0
KSW1 030704Z 16008KT 26/15 A3002 RMK A01 T02600151  RH  051%=      5-min Rain = 0
KSW1 030705Z 16008KT 26/15 A3002 RMK A01 T02610151  RH  051%=      5-min Rain = 0
KSW1 030706Z 16008KT 26/15 A3002 RMK A01 T02610151  RH  051%=      5-min Rain = 0
KSW1 030707Z 16009KT 26/15 A3002 RMK A01 T02610152  RH  051%=      5-min Rain = 0
KSW1 030708Z 16008KT 26/15 A3002 RMK A01 T02620151  RH  051%=      5-min Rain = 0
KSW1 030709Z 16008KT 26/15 A3002 RMK A01 T02620152  RH  051%=      5-min Rain = 0
KSW1 030710Z 16009KT 26/15 A3002 RMK A01 T02620152  RH  051%=      5-min Rain = 0
KSW1 030711Z 16009KT 26/15 A3002 RMK A01 T02620151  RH  051%=      5-min Rain = 0
KSW1 030712Z 16008KT 26/15 A3002 RMK A01 T02630152  RH  050%=      5-min Rain = 0
KSW1 030713Z 16008KT 26/15 A3002 RMK A01 T02630152  RH  051%=      5-min Rain = 0
KSW1 030714Z 16007KT 26/15 A3002 RMK A01 T02630152  RH  050%=      5-min Rain = 0
KSW1 030715Z 16009KT 26/15 A3002 RMK A01 T02620152  RH  051%=      5-min Rain = 0
KSW1 030716Z 16009KT 26/15 A3002 RMK A01 T02620151  RH  051%=      5-min Rain = 0
KSW1 030717Z 16010KT 26/15 A3002 RMK A01 T02620152  RH  050%=      5-min Rain = 0
KSW1 030718Z 16011KT 26/15 A3002 RMK A01 T02630151  RH  050%=      5-min Rain = 0
KSW1 030719Z 16008KT 27/15 A3002 RMK A01 T02650151  RH  050%=      5-min Rain = 0
KSW1 030720Z 16008KT 27/15 A3002 RMK A01 T02650151  RH  050%=      5-min Rain = 0
KSW1 030721Z 16009KT 27/15 A3002 RMK A01 T02650151  RH  050%=      5-min Rain = 0
KSW1 030722Z 16009KT 27/15 A3002 RMK A01 T02650152  RH  050%=      5-min Rain = 0
KSW1 030723Z 16009KT 27/15 A3002 RMK A01 T02650151  RH  050%=      5-min Rain = 0
KSW1 030724Z 16008KT 27/15 A3002 RMK A01 T02650152  RH  050%=      5-min Rain = 0
KSW1 030725Z 16009KT 27/15 A3002 RMK A01 T02650152  RH  050%=      5-min Rain = 0
KSW1 030726Z 17009KT 27/15 A3002 RMK A01 T02650152  RH  050%=      5-min Rain = 0
KSW1 030727Z 16010KT 27/15 A3002 RMK A01 T02650152  RH  050%=      5-min Rain = 0
KSW1 030728Z 16009KT 27/15 A3002 RMK A01 T02650152  RH  050%=      5-min Rain = 0
KSW1 030729Z 16009KT 27/15 A3002 RMK A01 T02650153  RH  050%=      5-min Rain = 0
KSW1 030730Z 16009KT 27/15 A3002 RMK A01 T02650153  RH  050%=      5-min Rain = 0
KSW1 030731Z 16011KT 27/15 A3002 RMK A01 T02650153  RH  050%=      5-min Rain = 0
KSW1 030732Z 17010KT 27/15 A3002 RMK A01 T02650153  RH  050%=      5-min Rain = 0
KSW1 030733Z 17010KT 27/15 A3001 RMK A01 T02660153  RH  050%=      5-min Rain = 0
KSW1 030734Z 16010KT 27/15 A3001 RMK A01 T02660153  RH  050%=      5-min Rain = 0
KSW1 030735Z 17009KT 27/15 A3001 RMK A01 T02660154  RH  050%=      5-min Rain = 0
KSW1 030736Z 17010KT 27/15 A3001 RMK A01 T02650154  RH  050%=      5-min Rain = 0
KSW1 030737Z 17010KT 27/15 A3001 RMK A01 T02650154  RH  051%=      5-min Rain = 0
KSW1 030738Z 17010KT 27/15 A3001 RMK A01 T02650154  RH  051%=      5-min Rain = 0
KSW1 030739Z 17009KT 27/15 A3001 RMK A01 T02650154  RH  051%=      5-min Rain = 0
KSW1 030740Z 17009KT 27/15 A3001 RMK A01 T02650154  RH  051%=      5-min Rain = 0
KSW1 030741Z 17010KT 26/15 A3001 RMK A01 T02640154  RH  051%=      5-min Rain = 0
KSW1 030742Z 17010KT 26/15 A3001 RMK A01 T02640154  RH  051%=      5-min Rain = 0
KSW1 030743Z 17009KT 26/16 A3001 RMK A01 T02640155  RH  051%=      5-min Rain = 0
KSW1 030744Z 17008KT 26/15 A3001 RMK A01 T02630154  RH  051%=      5-min Rain = 0
KSW1 030745Z 17010KT 26/16 A3001 RMK A01 T02630155  RH  051%=      5-min Rain = 0
KSW1 030746Z 17011KT 26/16 A3001 RMK A01 T02630155  RH  051%=      5-min Rain = 0
KSW1 030747Z 17010KT 26/16 A3001 RMK A01 T02630155  RH  051%=      5-min Rain = 0
KSW1 030748Z 17011KT 26/16 A3001 RMK A01 T02640155  RH  051%=      5-min Rain = 0
KSW1 030749Z 17010KT 26/16 A3001 RMK A01 T02640155  RH  051%=      5-min Rain = 0
KSW1 030750Z 17010KT 27/16 A3001 RMK A01 T02650156  RH  051%=      5-min Rain = 0
KSW1 030751Z 17010KT 26/16 A3001 RMK A01 T02640156  RH  051%=      5-min Rain = 0
KSW1 030752Z 17009KT 26/16 A3001 RMK A01 T02640156  RH  052%=      5-min Rain = 0
KSW1 030753Z 17010KT 26/16 A3001 RMK A01 T02640156  RH  052%=      5-min Rain = 0
KSW1 030754Z 17009KT 26/16 A3001 RMK A01 T02630157  RH  052%=      5-min Rain = 0
KSW1 030755Z 17010KT 26/16 A3001 RMK A01 T02630157  RH  052%=      5-min Rain = 0
KSW1 030756Z 17010KT 26/16 A3001 RMK A01 T02630157  RH  052%=      5-min Rain = 0
KSW1 030757Z 17009KT 26/16 A3001 RMK A01 T02630157  RH  052%=      5-min Rain = 0
KSW1 030758Z 17008KT 26/16 A3001 RMK A01 T02630157  RH  052%=      5-min Rain = 0
KSW1 030759Z 17009KT 26/16 A3001 RMK A01 T02620157  RH  052%=      5-min Rain = 0
KSW1 030800Z 17008KT 26/16 A3001 RMK A01 T02610157  RH  053%=      5-min Rain = 0
KSW1 030801Z 17009KT 26/16 A3001 RMK A01 T02610157  RH  053%=      5-min Rain = 0
KSW1 030802Z 17009KT 26/16 A3001 RMK A01 T02600157  RH  053%=      5-min Rain = 0
KSW1 030803Z 17009KT 26/16 A3001 RMK A01 T02600157  RH  053%=      5-min Rain = 0
KSW1 030804Z 17010KT 26/16 A3001 RMK A01 T02600158  RH  053%=      5-min Rain = 0
KSW1 030805Z 17009KT 26/16 A3001 RMK A01 T02600158  RH  053%=      5-min Rain = 0
KSW1 030806Z 17009KT 26/16 A3001 RMK A01 T02600158  RH  053%=      5-min Rain = 0
KSW1 030807Z 17008KT 26/16 A3001 RMK A01 T02600158  RH  054%=      5-min Rain = 0
KSW1 030808Z 18009KT 26/16 A3001 RMK A01 T02590158  RH  054%=      5-min Rain = 0
KSW1 030809Z 17008KT 26/16 A3001 RMK A01 T02590158  RH  054%=      5-min Rain = 0
KSW1 030810Z 18008KT 26/16 A3001 RMK A01 T02590159  RH  054%=      5-min Rain = 0
KSW1 030811Z 18008KT 26/16 A3001 RMK A01 T02580159  RH  054%=      5-min Rain = 0
KSW1 030812Z 17010KT 26/16 A3001 RMK A01 T02580159  RH  054%=      5-min Rain = 0
KSW1 030813Z 17010KT 26/16 A3001 RMK A01 T02580159  RH  055%=      5-min Rain = 0
KSW1 030814Z 17009KT 26/16 A3001 RMK A01 T02580159  RH  054%=      5-min Rain = 0
KSW1 030815Z 18009KT 26/16 A3001 RMK A01 T02580159  RH  054%=      5-min Rain = 0
KSW1 030816Z 18007KT 26/16 A3002 RMK A01 T02580160  RH  055%=      5-min Rain = 0
KSW1 030817Z 17009KT 26/16 A3002 RMK A01 T02570160  RH  055%=      5-min Rain = 0
KSW1 030818Z 17009KT 26/16 A3002 RMK A01 T02570160  RH  055%=      5-min Rain = 0
KSW1 030819Z 17008KT 26/16 A3002 RMK A01 T02560161  RH  055%=      5-min Rain = 0
KSW1 030820Z 17009KT 26/16 A3002 RMK A01 T02560161  RH  056%=      5-min Rain = 0
KSW1 030821Z 17009KT 26/16 A3002 RMK A01 T02560161  RH  056%=      5-min Rain = 0
KSW1 030822Z 17008KT 26/16 A3002 RMK A01 T02560161  RH  056%=      5-min Rain = 0
KSW1 030823Z 17009KT 26/16 A3002 RMK A01 T02550161  RH  056%=      5-min Rain = 0
KSW1 030824Z 17008KT 26/16 A3002 RMK A01 T02550161  RH  056%=      5-min Rain = 0
KSW1 030825Z 17009KT 26/16 A3002 RMK A01 T02550162  RH  056%=      5-min Rain = 0
KSW1 030826Z 17009KT 25/16 A3002 RMK A01 T02540162  RH  057%=      5-min Rain = 0
KSW1 030827Z 17009KT 26/16 A3002 RMK A01 T02550162  RH  057%=      5-min Rain = 0
KSW1 030828Z 17009KT 26/16 A3002 RMK A01 T02550162  RH  057%=      5-min Rain = 0
KSW1 030829Z 17008KT 26/16 A3002 RMK A01 T02550163  RH  057%=      5-min Rain = 0
KSW1 030830Z 17008KT 25/16 A3002 RMK A01 T02540163  RH  057%=      5-min Rain = 0
KSW1 030831Z 16009KT 25/16 A3002 RMK A01 T02540163  RH  057%=      5-min Rain = 0
KSW1 030832Z 17009KT 25/16 A3002 RMK A01 T02540163  RH  057%=      5-min Rain = 0
KSW1 030833Z 17008KT 25/16 A3002 RMK A01 T02540163  RH  057%=      5-min Rain = 0
KSW1 030834Z 17008KT 26/16 A3002 RMK A01 T02550164  RH  057%=      5-min Rain = 0
KSW1 030835Z 17008KT 26/16 A3002 RMK A01 T02550164  RH  057%=      5-min Rain = 0
KSW1 030836Z 17009KT 26/17 A3002 RMK A01 T02550165  RH  057%=      5-min Rain = 0
KSW1 030837Z 17008KT 26/17 A3002 RMK A01 T02550165  RH  058%=      5-min Rain = 0
KSW1 030838Z 17008KT 26/17 A3002 RMK A01 T02550165  RH  058%=      5-min Rain = 0
KSW1 030839Z 17007KT 26/17 A3002 RMK A01 T02550165  RH  057%=      5-min Rain = 0
KSW1 030840Z 18008KT 26/17 A3002 RMK A01 T02550166  RH  058%=      5-min Rain = 0
KSW1 030841Z 18008KT 25/17 A3002 RMK A01 T02540166  RH  058%=      5-min Rain = 0
KSW1 030842Z 17008KT 25/17 A3003 RMK A01 T02540166  RH  058%=      5-min Rain = 0
KSW1 030843Z 17008KT 25/17 A3003 RMK A01 T02530166  RH  058%=      5-min Rain = 0
KSW1 030844Z 17008KT 25/17 A3003 RMK A01 T02530166  RH  059%=      5-min Rain = 0
KSW1 030845Z 17008KT 25/17 A3003 RMK A01 T02520166  RH  059%=      5-min Rain = 0
KSW1 030846Z 17008KT 25/17 A3003 RMK A01 T02520167  RH  059%=      5-min Rain = 0
KSW1 030847Z 17008KT 25/17 A3003 RMK A01 T02520167  RH  059%=      5-min Rain = 0
KSW1 030848Z 17008KT 25/17 A3003 RMK A01 T02520167  RH  059%=      5-min Rain = 0
KSW1 030849Z 17008KT 25/17 A3003 RMK A01 T02510167  RH  060%=      5-min Rain = 0
KSW1 030850Z 17009KT 25/17 A3003 RMK A01 T02510167  RH  060%=      5-min Rain = 0
KSW1 030851Z 17010KT 25/17 A3003 RMK A01 T02510167  RH  060%=      5-min Rain = 0
KSW1 030852Z 17009KT 25/17 A3003 RMK A01 T02510168  RH  060%=      5-min Rain = 0
KSW1 030853Z 17009KT 25/17 A3003 RMK A01 T02510168  RH  060%=      5-min Rain = 0
KSW1 030854Z 17010KT 25/17 A3003 RMK A01 T02510168  RH  060%=      5-min Rain = 0
KSW1 030855Z 17010KT 25/17 A3003 RMK A01 T02510167  RH  060%=      5-min Rain = 0
KSW1 030856Z 17010KT 25/17 A3003 RMK A01 T02510168  RH  060%=      5-min Rain = 0
KSW1 030857Z 17011KT 25/17 A3003 RMK A01 T02510168  RH  060%=      5-min Rain = 0
KSW1 030858Z 17011KT 25/17 A3002 RMK A01 T02520168  RH  060%=      5-min Rain = 0
KSW1 030859Z 17011KT 25/17 A3002 RMK A01 T02520168  RH  060%=      5-min Rain = 0
KSW1 030900Z 17011KT 25/17 A3002 RMK A01 T02520168  RH  060%=      5-min Rain = 0
KSW1 030901Z 17011KT 25/17 A3002 RMK A01 T02530169  RH  060%=      5-min Rain = 0
KSW1 030902Z 17011KT 25/17 A3002 RMK A01 T02530169  RH  059%=      5-min Rain = 0
KSW1 030903Z 17010KT 25/17 A3002 RMK A01 T02540169  RH  059%=      5-min Rain = 0
KSW1 030904Z 17011KT 25/17 A3002 RMK A01 T02530169  RH  059%=      5-min Rain = 0
KSW1 030905Z 17011KT 25/17 A3002 RMK A01 T02540169  RH  060%=      5-min Rain = 0
KSW1 030906Z 17011KT 25/17 A3002 RMK A01 T02540169  RH  060%=      5-min Rain = 0
KSW1 030907Z 17011KT 25/17 A3002 RMK A01 T02540170  RH  060%=      5-min Rain = 0
KSW1 030908Z 17010KT 25/17 A3002 RMK A01 T02540170  RH  060%=      5-min Rain = 0
KSW1 030909Z 17010KT 25/17 A3002 RMK A01 T02540171  RH  060%=      5-min Rain = 0
KSW1 030910Z 16011KT 25/17 A3002 RMK A01 T02540170  RH  060%=      5-min Rain = 0
KSW1 030911Z 17011KT 26/17 A3002 RMK A01 T02550171  RH  060%=      5-min Rain = 0
KSW1 030912Z 17010KT 26/17 A3003 RMK A01 T02550171  RH  060%=      5-min Rain = 0
KSW1 030913Z 16012KT 26/17 A3003 RMK A01 T02550171  RH  060%=      5-min Rain = 0
KSW1 030914Z 16011KT 26/17 A3003 RMK A01 T02560172  RH  060%=      5-min Rain = 0
KSW1 030915Z 16009KT 26/17 A3003 RMK A01 T02560172  RH  059%=      5-min Rain = 0
KSW1 030916Z 17010KT 26/17 A3003 RMK A01 T02560172  RH  059%=      5-min Rain = 0
KSW1 030917Z 16010KT 26/17 A3003 RMK A01 T02570172  RH  060%=      5-min Rain = 0
KSW1 030918Z 16009KT 26/17 A3003 RMK A01 T02560172  RH  060%=      5-min Rain = 0
KSW1 030919Z 16008KT 26/17 A3003 RMK A01 T02560172  RH  060%=      5-min Rain = 0
KSW1 030920Z 16008KT 26/17 A3003 RMK A01 T02560172  RH  060%=      5-min Rain = 0
KSW1 030921Z 16007KT 26/17 A3003 RMK A01 T02560172  RH  060%=      5-min Rain = 0
KSW1 030922Z 16008KT 26/17 A3003 RMK A01 T02550172  RH  060%=      5-min Rain = 0
KSW1 030923Z 17009KT 26/17 A3003 RMK A01 T02550172  RH  060%=      5-min Rain = 0
KSW1 030924Z 17008KT 26/17 A3003 RMK A01 T02550172  RH  060%=      5-min Rain = 0
KSW1 030925Z 17008KT 26/17 A3003 RMK A01 T02550172  RH  060%=      5-min Rain = 0
KSW1 030926Z 17011KT 26/17 A3003 RMK A01 T02550172  RH  060%=      5-min Rain = 0
KSW1 030927Z 17010KT 26/17 A3003 RMK A01 T02560173  RH  060%=      5-min Rain = 0
KSW1 030928Z 17010KT 26/17 A3003 RMK A01 T02560173  RH  060%=      5-min Rain = 0
KSW1 030929Z 17009KT 26/17 A3003 RMK A01 T02560173  RH  060%=      5-min Rain = 0
KSW1 030930Z 17009KT 26/17 A3003 RMK A01 T02560173  RH  060%=      5-min Rain = 0
KSW1 030931Z 17011KT 26/17 A3003 RMK A01 T02560174  RH  060%=      5-min Rain = 0
KSW1 030932Z 17011KT 26/17 A3003 RMK A01 T02560174  RH  061%=      5-min Rain = 0
KSW1 030933Z 17012KT 26/17 A3003 RMK A01 T02560174  RH  061%=      5-min Rain = 0
KSW1 030934Z 17011KT 26/17 A3003 RMK A01 T02560174  RH  061%=      5-min Rain = 0
KSW1 030935Z 17013KT 26/18 A3003 RMK A01 T02560175  RH  061%=      5-min Rain = 0
KSW1 030936Z 18011KT 26/18 A3003 RMK A01 T02560175  RH  061%=      5-min Rain = 0
KSW1 030937Z 17011KT 26/18 A3003 RMK A01 T02560175  RH  061%=      5-min Rain = 0
KSW1 030938Z 17010KT 26/18 A3003 RMK A01 T02550175  RH  061%=      5-min Rain = 0
KSW1 030939Z 17012KT 26/18 A3004 RMK A01 T02550175  RH  061%=      5-min Rain = 0
KSW1 030940Z 17011KT 26/18 A3004 RMK A01 T02550175  RH  061%=      5-min Rain = 0
KSW1 030941Z 17011KT 26/18 A3004 RMK A01 T02550175  RH  061%=      5-min Rain = 0
KSW1 030942Z 18011KT 25/18 A3004 RMK A01 T02540175  RH  062%=      5-min Rain = 0
KSW1 030943Z 18011KT 25/18 A3004 RMK A01 T02540175  RH  062%=      5-min Rain = 0
KSW1 030944Z 18011KT 25/18 A3004 RMK A01 T02540176  RH  062%=      5-min Rain = 0
KSW1 030945Z 18011KT 25/18 A3004 RMK A01 T02540176  RH  062%=      5-min Rain = 0
KSW1 030946Z 18010KT 25/18 A3004 RMK A01 T02530175  RH  062%=      5-min Rain = 0
KSW1 030947Z 18010KT 25/18 A3004 RMK A01 T02530176  RH  062%=      5-min Rain = 0
KSW1 030948Z 18010KT 25/18 A3004 RMK A01 T02530175  RH  062%=      5-min Rain = 0
KSW1 030949Z 18011KT 25/18 A3004 RMK A01 T02520176  RH  062%=      5-min Rain = 0
KSW1 030950Z 18010KT 25/18 A3004 RMK A01 T02520176  RH  063%=      5-min Rain = 0
KSW1 030951Z 18009KT 25/18 A3004 RMK A01 T02510176  RH  063%=      5-min Rain = 0
KSW1 030952Z 18011KT 25/18 A3004 RMK A01 T02510176  RH  063%=      5-min Rain = 0
KSW1 030953Z 18010KT 25/18 A3004 RMK A01 T02500176  RH  063%=      5-min Rain = 0
KSW1 030954Z 18012KT 25/18 A3004 RMK A01 T02510176  RH  063%=      5-min Rain = 0
KSW1 030955Z 18010KT 25/18 A3004 RMK A01 T02500176  RH  063%=      5-min Rain = 0
KSW1 030956Z 18010KT 25/18 A3004 RMK A01 T02500176  RH  063%=      5-min Rain = 0
KSW1 030957Z 18010KT 25/18 A3004 RMK A01 T02500176  RH  064%=      5-min Rain = 0
KSW1 030958Z 18010KT 25/18 A3004 RMK A01 T02500177  RH  064%=      5-min Rain = 0
KSW1 030959Z 18009KT 25/18 A3004 RMK A01 T02490177  RH  064%=      5-min Rain = 0
KSW1 031000Z 18011KT 25/18 A3004 RMK A01 T02490177  RH  064%=      5-min Rain = 0
KSW1 031001Z 18010KT 25/18 A3004 RMK A01 T02490177  RH  064%=      5-min Rain = 0
KSW1 031002Z 18010KT 25/18 A3004 RMK A01 T02490177  RH  065%=      5-min Rain = 0
KSW1 031003Z 18012KT 25/18 A3004 RMK A01 T02480177  RH  065%=      5-min Rain = 0
KSW1 031004Z 18010KT 25/18 A3004 RMK A01 T02480177  RH  065%=      5-min Rain = 0
KSW1 031005Z 18011KT 25/18 A3003 RMK A01 T02480177  RH  065%=      5-min Rain = 0
KSW1 031006Z 18011KT 25/18 A3003 RMK A01 T02480177  RH  065%=      5-min Rain = 0
KSW1 031007Z 18012KT 25/18 A3003 RMK A01 T02480177  RH  065%=      5-min Rain = 0
KSW1 031008Z 18013KT 25/18 A3003 RMK A01 T02470177  RH  065%=      5-min Rain = 0
KSW1 031009Z 18010KT 25/18 A3003 RMK A01 T02480177  RH  065%=      5-min Rain = 0
KSW1 031010Z 18010KT 25/18 A3003 RMK A01 T02470177  RH  065%=      5-min Rain = 0
KSW1 031011Z 18010KT 25/18 A3003 RMK A01 T02460177  RH  065%=      5-min Rain = 0
KSW1 031012Z 18010KT 25/18 A3003 RMK A01 T02450177  RH  066%=      5-min Rain = 0
KSW1 031013Z 18011KT 25/18 A3003 RMK A01 T02450177  RH  066%=      5-min Rain = 0
KSW1 031014Z 18011KT 25/18 A3003 RMK A01 T02450177  RH  066%=      5-min Rain = 0
KSW1 031015Z 18011KT 25/18 A3003 RMK A01 T02450177  RH  066%=      5-min Rain = 0
KSW1 031016Z 18012KT 25/18 A3003 RMK A01 T02450177  RH  066%=      5-min Rain = 0
KSW1 031017Z 18011KT 25/18 A3003 RMK A01 T02450177  RH  066%=      5-min Rain = 0
KSW1 031018Z 18010KT 25/18 A3003 RMK A01 T02450177  RH  066%=      5-min Rain = 0
KSW1 031019Z 18009KT 25/18 A3003 RMK A01 T02450178  RH  066%=      5-min Rain = 0
KSW1 031020Z 17010KT 24/18 A3003 RMK A01 T02440177  RH  066%=      5-min Rain = 0
KSW1 031021Z 17009KT 24/18 A3003 RMK A01 T02440178  RH  066%=      5-min Rain = 0
KSW1 031022Z 17010KT 24/18 A3003 RMK A01 T02430177  RH  067%=      5-min Rain = 0
KSW1 031023Z 17009KT 24/18 A3003 RMK A01 T02440178  RH  067%=      5-min Rain = 0
KSW1 031024Z 17010KT 24/18 A3003 RMK A01 T02430178  RH  067%=      5-min Rain = 0
KSW1 031025Z 17011KT 24/18 A3004 RMK A01 T02430178  RH  067%=      5-min Rain = 0
KSW1 031026Z 17010KT 24/18 A3004 RMK A01 T02430178  RH  067%=      5-min Rain = 0
KSW1 031027Z 17011KT 24/18 A3004 RMK A01 T02430178  RH  067%=      5-min Rain = 0
KSW1 031028Z 17011KT 24/18 A3004 RMK A01 T02430178  RH  067%=      5-min Rain = 0
KSW1 031029Z 17009KT 24/18 A3004 RMK A01 T02430179  RH  067%=      5-min Rain = 0
KSW1 031030Z 17010KT 24/18 A3004 RMK A01 T02440179  RH  067%=      5-min Rain = 0
KSW1 031031Z 17009KT 24/18 A3004 RMK A01 T02440179  RH  067%=      5-min Rain = 0
KSW1 031032Z 17010KT 24/18 A3004 RMK A01 T02440179  RH  067%=      5-min Rain = 0
KSW1 031033Z 16009KT 24/18 A3004 RMK A01 T02440180  RH  067%=      5-min Rain = 0
KSW1 031034Z 17010KT 24/18 A3004 RMK A01 T02430180  RH  068%=      5-min Rain = 0
KSW1 031035Z 17009KT 24/18 A3004 RMK A01 T02430179  RH  068%=      5-min Rain = 0
KSW1 031036Z 17008KT 24/18 A3004 RMK A01 T02430179  RH  068%=      5-min Rain = 0
KSW1 031037Z 16009KT 24/18 A3004 RMK A01 T02430180  RH  068%=      5-min Rain = 0
KSW1 031038Z 16008KT 24/18 A3004 RMK A01 T02430180  RH  068%=      5-min Rain = 0
KSW1 031039Z 16010KT 24/18 A3004 RMK A01 T02430180  RH  068%=      5-min Rain = 0
KSW1 031040Z 16010KT 24/18 A3004 RMK A01 T02420180  RH  068%=      5-min Rain = 0
KSW1 031041Z 17009KT 24/18 A3004 RMK A01 T02430180  RH  068%=      5-min Rain = 0
KSW1 031042Z 17009KT 24/18 A3004 RMK A01 T02430180  RH  068%=      5-min Rain = 0
KSW1 031043Z 17008KT 24/18 A3004 RMK A01 T02430180  RH  068%=      5-min Rain = 0
KSW1 031044Z 17009KT 24/18 A3004 RMK A01 T02430181  RH  068%=      5-min Rain = 0
KSW1 031045Z 17009KT 24/18 A3004 RMK A01 T02430181  RH  068%=      5-min Rain = 0
KSW1 031046Z 17010KT 24/18 A3004 RMK A01 T02430181  RH  068%=      5-min Rain = 0
KSW1 031047Z 17010KT 24/18 A3004 RMK A01 T02430182  RH  069%=      5-min Rain = 0
KSW1 031048Z 17011KT 24/18 A3004 RMK A01 T02430182  RH  069%=      5-min Rain = 0
KSW1 031049Z 17012KT 24/18 A3004 RMK A01 T02430183  RH  069%=      5-min Rain = 0
KSW1 031050Z 17010KT 24/18 A3004 RMK A01 T02430183  RH  069%=      5-min Rain = 0
KSW1 031051Z 17009KT 24/18 A3005 RMK A01 T02440183  RH  069%=      5-min Rain = 0
KSW1 031052Z 16008KT 24/18 A3005 RMK A01 T02430183  RH  069%=      5-min Rain = 0
KSW1 031053Z 17008KT 24/18 A3005 RMK A01 T02430183  RH  069%=      5-min Rain = 0
KSW1 031054Z 16008KT 24/18 A3005 RMK A01 T02420183  RH  069%=      5-min Rain = 0
KSW1 031055Z 16007KT 24/18 A3005 RMK A01 T02410182  RH  070%=      5-min Rain = 0
KSW1 031056Z 16008KT 24/18 A3005 RMK A01 T02400182  RH  070%=      5-min Rain = 0
KSW1 031057Z 16007KT 24/18 A3004 RMK A01 T02390181  RH  070%=      5-min Rain = 0
KSW1 031058Z 16007KT 24/18 A3005 RMK A01 T02380181  RH  070%=      5-min Rain = 0
KSW1 031059Z 17007KT 24/18 A3005 RMK A01 T02370180  RH  070%=      5-min Rain = 0
KSW1 031100Z 16007KT 24/18 A3005 RMK A01 T02370180  RH  071%=      5-min Rain = 0
KSW1 031101Z 17008KT 24/18 A3005 RMK A01 T02360180  RH  071%=      5-min Rain = 0
KSW1 031102Z 17009KT 24/18 A3005 RMK A01 T02360181  RH  071%=      5-min Rain = 0
KSW1 031103Z 17009KT 24/18 A3005 RMK A01 T02360181  RH  071%=      5-min Rain = 0
KSW1 031104Z 17008KT 24/18 A3005 RMK A01 T02370182  RH  071%=      5-min Rain = 0
KSW1 031105Z 17009KT 24/18 A3005 RMK A01 T02370183  RH  071%=      5-min Rain = 0
KSW1 031106Z 16009KT 24/18 A3005 RMK A01 T02380184  RH  071%=      5-min Rain = 0
KSW1 031107Z 17010KT 24/18 A3005 RMK A01 T02390184  RH  071%=      5-min Rain = 0
KSW1 031108Z 17008KT 24/19 A3005 RMK A01 T02400185  RH  071%=      5-min Rain = 0
KSW1 031109Z 17008KT 24/19 A3005 RMK A01 T02400186  RH  072%=      5-min Rain = 0
KSW1 031110Z 16008KT 24/19 A3006 RMK A01 T02400187  RH  072%=      5-min Rain = 0
KSW1 031111Z 16006KT 24/19 A3006 RMK A01 T02400187  RH  072%=      5-min Rain = 0
KSW1 031112Z 16008KT 24/19 A3006 RMK A01 T02400187  RH  072%=      5-min Rain = 0
KSW1 031113Z 16007KT 24/19 A3006 RMK A01 T02400188  RH  072%=      5-min Rain = 0
KSW1 031114Z 16008KT 24/19 A3006 RMK A01 T02400187  RH  072%=      5-min Rain = 0
KSW1 031115Z 16008KT 24/19 A3006 RMK A01 T02390187  RH  072%=      5-min Rain = 0
KSW1 031116Z 16008KT 24/19 A3006 RMK A01 T02390186  RH  072%=      5-min Rain = 0
KSW1 031117Z 16008KT 24/19 A3006 RMK A01 T02390186  RH  072%=      5-min Rain = 0
KSW1 031118Z 16008KT 24/19 A3006 RMK A01 T02390185  RH  072%=      5-min Rain = 0
KSW1 031119Z 17008KT 24/19 A3006 RMK A01 T02390185  RH  072%=      5-min Rain = 0
KSW1 031120Z 16008KT 24/19 A3006 RMK A01 T02380185  RH  072%=      5-min Rain = 0
KSW1 031121Z 16007KT 24/19 A3006 RMK A01 T02390185  RH  072%=      5-min Rain = 0
KSW1 031122Z 16007KT 24/18 A3006 RMK A01 T02380184  RH  072%=      5-min Rain = 0
KSW1 031123Z 16007KT 24/18 A3006 RMK A01 T02370184  RH  072%=      5-min Rain = 0
KSW1 031124Z 16007KT 24/18 A3006 RMK A01 T02360183  RH  072%=      5-min Rain = 0
KSW1 031125Z 16008KT 24/18 A3006 RMK A01 T02360183  RH  072%=      5-min Rain = 0
KSW1 031126Z 15007KT 24/18 A3006 RMK A01 T02350183  RH  072%=      5-min Rain = 0
KSW1 031127Z 16008KT 24/18 A3006 RMK A01 T02350183  RH  072%=      5-min Rain = 0
KSW1 031128Z 16007KT 24/18 A3006 RMK A01 T02350183  RH  072%=      5-min Rain = 0
KSW1 031129Z 16007KT 24/18 A3006 RMK A01 T02350183  RH  073%=      5-min Rain = 0
KSW1 031130Z 16006KT 23/18 A3006 RMK A01 T02340183  RH  073%=      5-min Rain = 0
KSW1 031131Z 16006KT 23/18 A3006 RMK A01 T02340183  RH  073%=      5-min Rain = 0
KSW1 031132Z 16007KT 23/18 A3006 RMK A01 T02330183  RH  073%=      5-min Rain = 0
KSW1 031133Z 16007KT 23/18 A3006 RMK A01 T02330183  RH  074%=      5-min Rain = 0
KSW1 031134Z 16007KT 23/18 A3006 RMK A01 T02320183  RH  074%=      5-min Rain = 0
KSW1 031135Z 16007KT 23/18 A3006 RMK A01 T02320183  RH  074%=      5-min Rain = 0
KSW1 031136Z 16006KT 23/18 A3006 RMK A01 T02320184  RH  074%=      5-min Rain = 0
KSW1 031137Z 16006KT 23/18 A3006 RMK A01 T02320184  RH  074%=      5-min Rain = 0
KSW1 031138Z 16006KT 23/18 A3006 RMK A01 T02320183  RH  074%=      5-min Rain = 0
KSW1 031139Z 16007KT 23/18 A3006 RMK A01 T02320184  RH  074%=      5-min Rain = 0
KSW1 031140Z 15006KT 23/18 A3006 RMK A01 T02310184  RH  075%=      5-min Rain = 0
KSW1 031141Z 15006KT 23/18 A3006 RMK A01 T02310184  RH  075%=      5-min Rain = 0
KSW1 031142Z 15006KT 23/18 A3006 RMK A01 T02310184  RH  075%=      5-min Rain = 0
KSW1 031143Z 15006KT 23/18 A3006 RMK A01 T02310184  RH  075%=      5-min Rain = 0
KSW1 031144Z 15006KT 23/18 A3006 RMK A01 T02300184  RH  075%=      5-min Rain = 0
KSW1 031145Z 15006KT 23/18 A3006 RMK A01 T02300184  RH  076%=      5-min Rain = 0
KSW1 031146Z 16006KT 23/19 A3006 RMK A01 T02300185  RH  076%=      5-min Rain = 0
KSW1 031147Z 16005KT 23/19 A3006 RMK A01 T02300185  RH  076%=      5-min Rain = 0
KSW1 031148Z 16005KT 23/19 A3006 RMK A01 T02300185  RH  076%=      5-min Rain = 0
KSW1 031149Z 16005KT 23/19 A3006 RMK A01 T02300185  RH  076%=      5-min Rain = 0
KSW1 031150Z 16005KT 23/19 A3006 RMK A01 T02300185  RH  076%=      5-min Rain = 0
KSW1 031151Z 16006KT 23/19 A3007 RMK A01 T02300185  RH  076%=      5-min Rain = 0
KSW1 031152Z 16005KT 23/19 A3007 RMK A01 T02300185  RH  076%=      5-min Rain = 0
KSW1 031153Z 16005KT 23/19 A3007 RMK A01 T02300186  RH  076%=      5-min Rain = 0
KSW1 031154Z 16005KT 23/19 A3007 RMK A01 T02300186  RH  076%=      5-min Rain = 0
KSW1 031155Z 17005KT 23/19 A3007 RMK A01 T02300186  RH  076%=      5-min Rain = 0
KSW1 031156Z 17006KT 23/19 A3007 RMK A01 T02290186  RH  077%=      5-min Rain = 0
KSW1 031157Z 17005KT 23/19 A3007 RMK A01 T02300186  RH  076%=      5-min Rain = 0
KSW1 031158Z 17005KT 23/19 A3007 RMK A01 T02300186  RH  076%=      5-min Rain = 0
KSW1 031159Z 17006KT 23/19 A3007 RMK A01 T02310187  RH  076%=      5-min Rain = 0
KSW1 031200Z 17005KT 23/19 A3007 RMK A01 T02320187  RH  076%=      5-min Rain = 0
KSW1 031201Z 18006KT 23/19 A3007 RMK A01 T02320187  RH  076%=      5-min Rain = 0
KSW1 031202Z 18005KT 23/19 A3007 RMK A01 T02330187  RH  076%=      5-min Rain = 0
KSW1 031203Z 18007KT 23/19 A3007 RMK A01 T02330188  RH  076%=      5-min Rain = 0
KSW1 031204Z 17006KT 23/19 A3007 RMK A01 T02330188  RH  076%=      5-min Rain = 0
KSW1 031205Z 18007KT 23/19 A3007 RMK A01 T02340189  RH  076%=      5-min Rain = 0
KSW1 031206Z 18008KT 23/19 A3007 RMK A01 T02340189  RH  076%=      5-min Rain = 0
KSW1 031207Z 18008KT 24/19 A3007 RMK A01 T02350189  RH  075%=      5-min Rain = 0
KSW1 031208Z 18008KT 24/19 A3007 RMK A01 T02360190  RH  075%=      5-min Rain = 0
KSW1 031209Z 18008KT 24/19 A3007 RMK A01 T02370190  RH  075%=      5-min Rain = 0
KSW1 031210Z 18008KT 24/19 A3007 RMK A01 T02370190  RH  075%=      5-min Rain = 0
KSW1 031211Z 18009KT 24/19 A3007 RMK A01 T02370190  RH  075%=      5-min Rain = 0
KSW1 031212Z 18009KT 24/19 A3007 RMK A01 T02370190  RH  075%=      5-min Rain = 0
KSW1 031213Z 18007KT 24/19 A3007 RMK A01 T02380190  RH  074%=      5-min Rain = 0
KSW1 031214Z 18008KT 24/19 A3007 RMK A01 T02370190  RH  074%=      5-min Rain = 0
KSW1 031215Z 18008KT 24/19 A3007 RMK A01 T02380190  RH  075%=      5-min Rain = 0
KSW1 031216Z 18008KT 24/19 A3007 RMK A01 T02380190  RH  075%=      5-min Rain = 0
KSW1 031217Z 18009KT 24/19 A3007 RMK A01 T02380190  RH  075%=      5-min Rain = 0
KSW1 031218Z 18007KT 24/19 A3007 RMK A01 T02380190  RH  074%=      5-min Rain = 0
KSW1 031219Z 18008KT 24/19 A3007 RMK A01 T02380190  RH  074%=      5-min Rain = 0
KSW1 031220Z 17009KT 24/19 A3007 RMK A01 T02380190  RH  075%=      5-min Rain = 0
KSW1 031221Z 18009KT 24/19 A3007 RMK A01 T02380190  RH  075%=      5-min Rain = 0
KSW1 031222Z 18009KT 24/19 A3007 RMK A01 T02390191  RH  074%=      5-min Rain = 0
KSW1 031223Z 18008KT 24/19 A3007 RMK A01 T02390190  RH  074%=      5-min Rain = 0
KSW1 031224Z 18009KT 24/19 A3007 RMK A01 T02400191  RH  074%=      5-min Rain = 0
KSW1 031225Z 18009KT 24/19 A3007 RMK A01 T02390191  RH  074%=      5-min Rain = 0
KSW1 031226Z 17009KT 24/19 A3007 RMK A01 T02400191  RH  074%=      5-min Rain = 0
KSW1 031227Z 18008KT 24/19 A3007 RMK A01 T02400191  RH  074%=      5-min Rain = 0
KSW1 031228Z 18009KT 24/19 A3007 RMK A01 T02400191  RH  074%=      5-min Rain = 0
KSW1 031229Z 18009KT 24/19 A3007 RMK A01 T02400191  RH  074%=      5-min Rain = 0
KSW1 031230Z 18009KT 24/19 A3007 RMK A01 T02410191  RH  074%=      5-min Rain = 0
KSW1 031231Z 18009KT 24/19 A3007 RMK A01 T02410192  RH  074%=      5-min Rain = 0
KSW1 031232Z 18009KT 24/19 A3007 RMK A01 T02410192  RH  074%=      5-min Rain = 0
KSW1 031233Z 18008KT 24/19 A3007 RMK A01 T02410192  RH  074%=      5-min Rain = 0
KSW1 031234Z 18009KT 24/19 A3007 RMK A01 T02410192  RH  074%=      5-min Rain = 0
KSW1 031235Z 18009KT 24/19 A3007 RMK A01 T02420192  RH  074%=      5-min Rain = 0
KSW1 031236Z 18009KT 24/19 A3007 RMK A01 T02420192  RH  074%=      5-min Rain = 0
KSW1 031237Z 18008KT 24/19 A3007 RMK A01 T02430193  RH  074%=      5-min Rain = 0
KSW1 031238Z 17008KT 24/19 A3007 RMK A01 T02430193  RH  074%=      5-min Rain = 0
KSW1 031239Z 18008KT 24/19 A3007 RMK A01 T02430193  RH  073%=      5-min Rain = 0
KSW1 031240Z 18009KT 24/19 A3007 RMK A01 T02440193  RH  073%=      5-min Rain = 0
KSW1 031241Z 18009KT 24/19 A3007 RMK A01 T02440193  RH  073%=      5-min Rain = 0
KSW1 031242Z 18009KT 24/19 A3007 RMK A01 T02440193  RH  073%=      5-min Rain = 0
KSW1 031243Z 18008KT 25/19 A3007 RMK A01 T02450194  RH  073%=      5-min Rain = 0
KSW1 031244Z 18010KT 25/19 A3007 RMK A01 T02450194  RH  073%=      5-min Rain = 0
KSW1 031245Z 18010KT 25/19 A3007 RMK A01 T02460194  RH  073%=      5-min Rain = 0
KSW1 031246Z 18009KT 25/19 A3007 RMK A01 T02460194  RH  073%=      5-min Rain = 0
KSW1 031247Z 18009KT 25/19 A3007 RMK A01 T02460194  RH  073%=      5-min Rain = 0
KSW1 031248Z 18008KT 25/20 A3007 RMK A01 T02470195  RH  073%=      5-min Rain = 0
KSW1 031249Z 18009KT 25/20 A3007 RMK A01 T02480195  RH  072%=      5-min Rain = 0
KSW1 031250Z 18010KT 25/20 A3007 RMK A01 T02480195  RH  072%=      5-min Rain = 0
KSW1 031251Z 18009KT 25/20 A3007 RMK A01 T02480195  RH  072%=      5-min Rain = 0
KSW1 031252Z 18008KT 25/20 A3007 RMK A01 T02490195  RH  072%=      5-min Rain = 0
KSW1 031253Z 18011KT 25/20 A3007 RMK A01 T02490195  RH  072%=      5-min Rain = 0
KSW1 031254Z 18010KT 25/20 A3007 RMK A01 T02490195  RH  072%=      5-min Rain = 0
KSW1 031255Z 18011KT 25/20 A3007 RMK A01 T02490195  RH  072%=      5-min Rain = 0
KSW1 031256Z 18011KT 25/20 A3007 RMK A01 T02490195  RH  072%=      5-min Rain = 0
KSW1 031257Z 18010KT 25/20 A3007 RMK A01 T02500195  RH  072%=      5-min Rain = 0
KSW1 031258Z 18011KT 25/20 A3007 RMK A01 T02500196  RH  072%=      5-min Rain = 0
KSW1 031259Z 18011KT 25/20 A3007 RMK A01 T02500195  RH  071%=      5-min Rain = 0
KSW1 031300Z 18011KT 25/20 A3007 RMK A01 T02510196  RH  071%=      5-min Rain = 0
KSW1 031301Z 18008KT 25/20 A3007 RMK A01 T02510196  RH  071%=      5-min Rain = 0
KSW1 031302Z 18009KT 25/20 A3007 RMK A01 T02520197  RH  071%=      5-min Rain = 0
KSW1 031303Z 18010KT 25/20 A3007 RMK A01 T02530196  RH  071%=      5-min Rain = 0
KSW1 031304Z 18008KT 25/20 A3007 RMK A01 T02530197  RH  071%=      5-min Rain = 0
KSW1 031305Z 18007KT 25/20 A3008 RMK A01 T02530197  RH  071%=      5-min Rain = 0
KSW1 031306Z 18009KT 25/20 A3008 RMK A01 T02540197  RH  071%=      5-min Rain = 0
KSW1 031307Z 18012KT 25/20 A3008 RMK A01 T02540197  RH  071%=      5-min Rain = 0
KSW1 031308Z 18011KT 25/20 A3008 RMK A01 T02540197  RH  070%=      5-min Rain = 0
KSW1 031309Z 19009KT 25/20 A3008 RMK A01 T02540197  RH  071%=      5-min Rain = 0
KSW1 031310Z 18011KT 25/20 A3008 RMK A01 T02540197  RH  071%=      5-min Rain = 0
KSW1 031311Z 19011KT 25/20 A3008 RMK A01 T02540197  RH  070%=      5-min Rain = 0
KSW1 031312Z 18012KT 25/20 A3008 RMK A01 T02540197  RH  071%=      5-min Rain = 0
KSW1 031313Z 18012KT 25/20 A3008 RMK A01 T02540197  RH  071%=      5-min Rain = 0
KSW1 031314Z 19012KT 25/20 A3008 RMK A01 T02540197  RH  071%=      5-min Rain = 0
KSW1 031315Z 19011KT 25/20 A3008 RMK A01 T02540197  RH  071%=      5-min Rain = 0
KSW1 031316Z 19013KT 26/20 A3008 RMK A01 T02550198  RH  071%=      5-min Rain = 0
KSW1 031317Z 19011KT 26/20 A3008 RMK A01 T02550198  RH  070%=      5-min Rain = 0
KSW1 031318Z 19010KT 26/20 A3008 RMK A01 T02550198  RH  071%=      5-min Rain = 0
KSW1 031319Z 18010KT 26/20 A3008 RMK A01 T02560198  RH  070%=      5-min Rain = 0
KSW1 031320Z 18011KT 26/20 A3008 RMK A01 T02560198  RH  070%=      5-min Rain = 0
KSW1 031321Z 19009KT 26/20 A3008 RMK A01 T02560198  RH  070%=      5-min Rain = 0
KSW1 031322Z 19011KT 26/20 A3008 RMK A01 T02560198  RH  070%=      5-min Rain = 0
KSW1 031323Z 18010KT 26/20 A3008 RMK A01 T02570199  RH  070%=      5-min Rain = 0
KSW1 031324Z 19011KT 26/20 A3008 RMK A01 T02570199  RH  070%=      5-min Rain = 0
KSW1 031325Z 19010KT 26/20 A3008 RMK A01 T02580199  RH  070%=      5-min Rain = 0
KSW1 031326Z 20011KT 26/20 A3008 RMK A01 T02580199  RH  070%=      5-min Rain = 0
KSW1 031327Z 19012KT 26/20 A3008 RMK A01 T02580199  RH  070%=      5-min Rain = 0
KSW1 031328Z 19011KT 26/20 A3008 RMK A01 T02580200  RH  070%=      5-min Rain = 0
KSW1 031329Z 18012KT 26/20 A3008 RMK A01 T02580200  RH  070%=      5-min Rain = 0
KSW1 031330Z 18012KT 26/20 A3008 RMK A01 T02580199  RH  070%=      5-min Rain = 0
KSW1 031331Z 18011G16KT 26/20 A3009 RMK A01 T02590200  RH  070%=      5-min Rain = 0
KSW1 031332Z 18013KT 26/20 A3009 RMK A01 T02600200  RH  069%=      5-min Rain = 0
KSW1 031333Z 18013KT 26/20 A3009 RMK A01 T02600199  RH  069%=      5-min Rain = 0
KSW1 031334Z 18013KT 26/20 A3009 RMK A01 T02590200  RH  070%=      5-min Rain = 0
KSW1 031335Z 17011KT 26/20 A3009 RMK A01 T02590200  RH  070%=      5-min Rain = 0
KSW1 031336Z 17011KT 26/20 A3009 RMK A01 T02590200  RH  070%=      5-min Rain = 0
KSW1 031337Z 18013KT 26/20 A3009 RMK A01 T02600200  RH  069%=      5-min Rain = 0
KSW1 031338Z 18012KT 26/20 A3009 RMK A01 T02610200  RH  069%=      5-min Rain = 0
KSW1 031339Z 17012KT 26/20 A3009 RMK A01 T02610200  RH  069%=      5-min Rain = 0
KSW1 031340Z 18011KT 26/20 A3009 RMK A01 T02610200  RH  069%=      5-min Rain = 0
KSW1 031341Z 18010KT 26/20 A3009 RMK A01 T02620201  RH  069%=      5-min Rain = 0
KSW1 031342Z 19010KT 26/20 A3009 RMK A01 T02630200  RH  068%=      5-min Rain = 0
KSW1 031343Z 18010KT 26/20 A3009 RMK A01 T02630201  RH  069%=      5-min Rain = 0
KSW1 031344Z 17014KT 26/20 A3009 RMK A01 T02640200  RH  068%=      5-min Rain = 0
KSW1 031345Z 17012KT 26/20 A3009 RMK A01 T02640200  RH  068%=      5-min Rain = 0
KSW1 031346Z 18012KT 26/20 A3009 RMK A01 T02640200  RH  068%=      5-min Rain = 0
KSW1 031347Z 19012KT 26/20 A3009 RMK A01 T02640200  RH  068%=      5-min Rain = 0
KSW1 031348Z 19012KT 27/20 A3009 RMK A01 T02650200  RH  067%=      5-min Rain = 0
KSW1 031349Z 19010KT 27/20 A3009 RMK A01 T02650199  RH  067%=      5-min Rain = 0
KSW1 031350Z 18011KT 26/20 A3009 RMK A01 T02640201  RH  068%=      5-min Rain = 0
KSW1 031351Z 18012KT 27/20 A3009 RMK A01 T02660200  RH  067%=      5-min Rain = 0
KSW1 031352Z 18013KT 27/20 A3009 RMK A01 T02660199  RH  067%=      5-min Rain = 0
KSW1 031353Z 19012KT 27/20 A3009 RMK A01 T02650200  RH  067%=      5-min Rain = 0
KSW1 031354Z 19013KT 27/20 A3009 RMK A01 T02650200  RH  068%=      5-min Rain = 0
KSW1 031355Z 18013KT 26/20 A3009 RMK A01 T02640200  RH  068%=      5-min Rain = 0
KSW1 031356Z 18011KT 26/20 A3009 RMK A01 T02640200  RH  068%=      5-min Rain = 0
KSW1 031357Z 18013KT 27/20 A3009 RMK A01 T02660200  RH  067%=      5-min Rain = 0
KSW1 031358Z 18009KT 27/20 A3009 RMK A01 T02660201  RH  067%=      5-min Rain = 0
KSW1 031359Z 18013KT 27/20 A3009 RMK A01 T02680200  RH  066%=      5-min Rain = 0
KSW1 031400Z 19009KT 27/20 A3009 RMK A01 T02690199  RH  065%=      5-min Rain = 0
KSW1 031401Z 20011KT 27/20 A3009 RMK A01 T02700199  RH  065%=      5-min Rain = 0
KSW1 031402Z 20011KT 27/20 A3008 RMK A01 T02700200  RH  065%=      5-min Rain = 0
KSW1 031403Z 20010KT 27/20 A3008 RMK A01 T02700200  RH  065%=      5-min Rain = 0
KSW1 031404Z 20009KT 27/20 A3009 RMK A01 T02710200  RH  065%=      5-min Rain = 0
KSW1 031405Z 19010KT 27/20 A3009 RMK A01 T02710200  RH  065%=      5-min Rain = 0
KSW1 031406Z 19009KT 27/20 A3009 RMK A01 T02720201  RH  065%=      5-min Rain = 0
KSW1 031407Z 18010KT 27/20 A3009 RMK A01 T02740201  RH  064%=      5-min Rain = 0
KSW1 031408Z 18012KT 28/20 A3009 RMK A01 T02750200  RH  064%=      5-min Rain = 0
KSW1 031409Z 18012KT 27/20 A3009 RMK A01 T02730200  RH  065%=      5-min Rain = 0
KSW1 031410Z 18012KT 27/20 A3009 RMK A01 T02720199  RH  065%=      5-min Rain = 0
KSW1 031411Z 18012KT 27/20 A3009 RMK A01 T02710198  RH  064%=      5-min Rain = 0
KSW1 031412Z 20013KT 27/20 A3009 RMK A01 T02720198  RH  064%=      5-min Rain = 0
KSW1 031413Z 19012KT 27/20 A3009 RMK A01 T02730197  RH  063%=      5-min Rain = 0
KSW1 031414Z 19011KT 27/20 A3009 RMK A01 T02730199  RH  064%=      5-min Rain = 0
KSW1 031415Z 20010KT 27/20 A3009 RMK A01 T02740198  RH  063%=      5-min Rain = 0
KSW1 031416Z 20009KT 28/20 A3009 RMK A01 T02750199  RH  063%=      5-min Rain = 0
KSW1 031417Z 19010KT 28/20 A3009 RMK A01 T02770200  RH  063%=      5-min Rain = 0
KSW1 031418Z 18009KT 28/20 A3009 RMK A01 T02770199  RH  062%=      5-min Rain = 0
KSW1 031419Z 19012KT 28/20 A3009 RMK A01 T02780198  RH  062%=      5-min Rain = 0
KSW1 031420Z 20011KT 28/20 A3009 RMK A01 T02770198  RH  062%=      5-min Rain = 0
KSW1 031421Z 20012KT 28/20 A3009 RMK A01 T02770198  RH  062%=      5-min Rain = 0
KSW1 031422Z 20012KT 28/20 A3009 RMK A01 T02760197  RH  062%=      5-min Rain = 0
KSW1 031423Z 21009KT 28/20 A3009 RMK A01 T02760197  RH  062%=      5-min Rain = 0
KSW1 031424Z 21010KT 28/20 A3009 RMK A01 T02760198  RH  062%=      5-min Rain = 0
KSW1 031425Z 20009KT 28/20 A3009 RMK A01 T02760199  RH  063%=      5-min Rain = 0
KSW1 031426Z 20009KT 28/20 A3009 RMK A01 T02770198  RH  062%=      5-min Rain = 0
KSW1 031427Z 20009KT 28/20 A3009 RMK A01 T02790199  RH  062%=      5-min Rain = 0
KSW1 031428Z 19012KT 28/20 A3009 RMK A01 T02820198  RH  060%=      5-min Rain = 0
KSW1 031429Z 19013KT 28/20 A3009 RMK A01 T02830197  RH  060%=      5-min Rain = 0
KSW1 031430Z 20011KT 28/20 A3009 RMK A01 T02810196  RH  060%=      5-min Rain = 0
KSW1 031431Z 20011KT 28/20 A3009 RMK A01 T02800197  RH  061%=      5-min Rain = 0
KSW1 031432Z 20009KT 28/20 A3009 RMK A01 T02800197  RH  061%=      5-min Rain = 0
KSW1 031433Z 19009KT 28/20 A3009 RMK A01 T02800197  RH  060%=      5-min Rain = 0
KSW1 031434Z 20011KT 28/20 A3009 RMK A01 T02810196  RH  060%=      5-min Rain = 0
KSW1 031435Z 21010KT 28/20 A3009 RMK A01 T02800197  RH  061%=      5-min Rain = 0
KSW1 031436Z 19009KT 28/20 A3009 RMK A01 T02800197  RH  061%=      5-min Rain = 0
KSW1 031437Z 20010KT 28/20 A301 RMK A01 T02820197  RH  060%=      5-min Rain = 0
KSW1 031438Z 20009KT 28/20 A301 RMK A01 T02830197  RH  060%=      5-min Rain = 0
KSW1 031439Z 19010KT 29/20 A301 RMK A01 T02850198  RH  059%=      5-min Rain = 0
KSW1 031440Z 20010KT 29/20 A301 RMK A01 T02860196  RH  058%=      5-min Rain = 0
KSW1 031441Z 21009KT 28/20 A301 RMK A01 T02840196  RH  059%=      5-min Rain = 0
KSW1 031442Z 20009KT 28/20 A301 RMK A01 T02830195  RH  059%=      5-min Rain = 0
KSW1 031443Z 19009KT 28/20 A301 RMK A01 T02830196  RH  059%=      5-min Rain = 0
KSW1 031444Z 20011KT 28/20 A301 RMK A01 T02840197  RH  059%=      5-min Rain = 0
KSW1 031445Z 19011KT 28/20 A301 RMK A01 T02840197  RH  059%=      5-min Rain = 0
KSW1 031446Z 18012KT 29/19 A301 RMK A01 T02850194  RH  058%=      5-min Rain = 0
KSW1 031447Z 18012KT 29/19 A301 RMK A01 T02850194  RH  058%=      5-min Rain = 0
KSW1 031448Z 18011KT 29/19 A301 RMK A01 T02850194  RH  058%=      5-min Rain = 0
KSW1 031449Z 19012KT 29/19 A301 RMK A01 T02860194  RH  058%=      5-min Rain = 0
KSW1 031450Z 20012KT 29/19 A301 RMK A01 T02860194  RH  058%=      5-min Rain = 0
KSW1 031451Z 20011KT 29/19 A301 RMK A01 T02850193  RH  058%=      5-min Rain = 0
KSW1 031452Z 19011KT 29/20 A301 RMK A01 T02850195  RH  058%=      5-min Rain = 0
KSW1 031453Z 19011KT 29/20 A301 RMK A01 T02870195  RH  057%=      5-min Rain = 0
KSW1 031454Z 20009KT 29/20 A301 RMK A01 T02870196  RH  058%=      5-min Rain = 0
KSW1 031455Z 18009KT 29/20 A301 RMK A01 T02880197  RH  058%=      5-min Rain = 0
KSW1 031456Z 17010KT 29/20 A301 RMK A01 T02900196  RH  057%=      5-min Rain = 0
KSW1 031457Z 17010KT 29/20 A301 RMK A01 T02880196  RH  057%=      5-min Rain = 0
KSW1 031458Z 18010KT 29/20 A301 RMK A01 T02880197  RH  058%=      5-min Rain = 0
KSW1 031459Z 18011KT 29/20 A301 RMK A01 T02890195  RH  057%=      5-min Rain = 0
KSW1 031500Z 19011KT 29/19 A301 RMK A01 T02890194  RH  057%=      5-min Rain = 0
KSW1 031501Z 19009KT 29/20 A301 RMK A01 T02880196  RH  057%=      5-min Rain = 0
KSW1 031502Z 19007KT 29/20 A301 RMK A01 T02900198  RH  057%=      5-min Rain = 0
KSW1 031503Z 18010KT 29/20 A301 RMK A01 T02920198  RH  057%=      5-min Rain = 0
KSW1 031504Z 18008KT 29/20 A301 RMK A01 T02920197  RH  056%=      5-min Rain = 0
KSW1 031505Z 16010KT 29/20 A301 RMK A01 T02910195  RH  056%=      5-min Rain = 0
KSW1 031506Z 18010KT 29/20 A301 RMK A01 T02910195  RH  056%=      5-min Rain = 0
KSW1 031507Z 18009KT 29/20 A301 RMK A01 T02910195  RH  056%=      5-min Rain = 0
KSW1 031508Z 20007KT 29/19 A301 RMK A01 T02920194  RH  055%=      5-min Rain = 0
KSW1 031509Z 18010KT 29/20 A301 RMK A01 T02930195  RH  056%=      5-min Rain = 0
KSW1 031510Z 18010KT 29/20 A301 RMK A01 T02940197  RH  056%=      5-min Rain = 0
KSW1 031511Z 19010G15KT 29/19 A301 RMK A01 T02930193  RH  055%=      5-min Rain = 0
KSW1 031512Z 19012KT 30/19 A301 RMK A01 T02950191  RH  054%=      5-min Rain = 0
KSW1 031513Z 20012KT 29/19 A301 RMK A01 T02930191  RH  054%=      5-min Rain = 0
KSW1 031514Z 18011KT 29/19 A301 RMK A01 T02920191  RH  055%=      5-min Rain = 0
KSW1 031515Z 20008KT 29/19 A301 RMK A01 T02920192  RH  055%=      5-min Rain = 0
KSW1 031516Z 20009KT 29/19 A301 RMK A01 T02940194  RH  055%=      5-min Rain = 0
KSW1 031517Z 19007KT 30/20 A301 RMK A01 T02950195  RH  055%=      5-min Rain = 0
KSW1 031518Z 20008KT 29/20 A301 RMK A01 T02930196  RH  056%=      5-min Rain = 0
KSW1 031519Z 19008KT 29/20 A301 RMK A01 T02920196  RH  056%=      5-min Rain = 0
KSW1 031520Z 17009KT 29/20 A301 RMK A01 T02920195  RH  056%=      5-min Rain = 0
KSW1 031521Z 20008KT 29/20 A301 RMK A01 T02940195  RH  055%=      5-min Rain = 0
KSW1 031522Z 21010KT 30/19 A301 RMK A01 T02960194  RH  054%=      5-min Rain = 0
KSW1 031523Z 20011KT 30/19 A301 RMK A01 T02970194  RH  054%=      5-min Rain = 0
KSW1 031524Z 20011KT 30/19 A301 RMK A01 T02970191  RH  053%=      5-min Rain = 0
KSW1 031525Z 20008KT 30/19 A301 RMK A01 T02960190  RH  053%=      5-min Rain = 0
KSW1 031526Z 19008KT 30/19 A301 RMK A01 T02970193  RH  054%=      5-min Rain = 0
KSW1 031527Z 17009KT 30/19 A301 RMK A01 T03000193  RH  053%=      5-min Rain = 0
KSW1 031528Z 18008KT 30/19 A301 RMK A01 T03000193  RH  053%=      5-min Rain = 0
KSW1 031529Z 19008KT 30/19 A301 RMK A01 T02990193  RH  053%=      5-min Rain = 0
KSW1 031530Z 18008KT 30/19 A301 RMK A01 T03000193  RH  053%=      5-min Rain = 0
KSW1 031531Z 18010KT 30/20 A301 RMK A01 T02980195  RH  054%=      5-min Rain = 0
KSW1 031532Z 20008KT 30/19 A301 RMK A01 T02960193  RH  054%=      5-min Rain = 0
KSW1 031533Z 22007KT 30/19 A301 RMK A01 T02950194  RH  055%=      5-min Rain = 0
KSW1 031534Z 22009KT 30/19 A301 RMK A01 T02970190  RH  053%=      5-min Rain = 0
KSW1 031535Z 22008KT 30/19 A301 RMK A01 T02990185  RH  050%=      5-min Rain = 0
KSW1 031536Z 20007KT 30/19 A301 RMK A01 T03010192  RH  052%=      5-min Rain = 0
KSW1 031537Z 18007KT 31/19 A301 RMK A01 T03050194  RH  052%=      5-min Rain = 0
KSW1 031538Z 17009KT 31/20 A301 RMK A01 T03060196  RH  052%=      5-min Rain = 0
KSW1 031539Z 18009KT 30/20 A301 RMK A01 T03030196  RH  053%=      5-min Rain = 0
KSW1 031540Z 17007KT 30/20 A301 RMK A01 T03010196  RH  053%=      5-min Rain = 0
KSW1 031541Z 18010KT 30/19 A301 RMK A01 T03020191  RH  052%=      5-min Rain = 0
KSW1 031542Z 20011KT 30/19 A301 RMK A01 T03020189  RH  051%=      5-min Rain = 0
KSW1 031543Z 21011KT 30/19 A301 RMK A01 T03040188  RH  050%=      5-min Rain = 0
KSW1 031544Z 21010KT 30/19 A301 RMK A01 T03030190  RH  051%=      5-min Rain = 0
KSW1 031545Z 21007KT 30/19 A301 RMK A01 T03020190  RH  051%=      5-min Rain = 0
KSW1 031546Z 22006KT 30/19 A301 RMK A01 T03020188  RH  051%=      5-min Rain = 0
KSW1 031547Z 19006G11KT 30/19 A301 RMK A01 T03020188  RH  050%=      5-min Rain = 0
KSW1 031548Z 17010KT 31/19 A301 RMK A01 T03050192  RH  051%=      5-min Rain = 0
KSW1 031549Z 19009KT 31/19 A301 RMK A01 T03060193  RH  051%=      5-min Rain = 0
KSW1 031550Z 21008KT 31/19 A301 RMK A01 T03070190  RH  050%=      5-min Rain = 0
KSW1 031551Z 22009KT 31/19 A301 RMK A01 T03080188  RH  049%=      5-min Rain = 0
KSW1 031552Z 22009KT 31/19 A301 RMK A01 T03080188  RH  049%=      5-min Rain = 0
KSW1 031553Z 22010KT 31/19 A301 RMK A01 T03080189  RH  049%=      5-min Rain = 0
KSW1 031554Z 23011KT 31/19 A301 RMK A01 T03070187  RH  049%=      5-min Rain = 0
KSW1 031555Z 22008KT 31/19 A3009 RMK A01 T03060189  RH  050%=      5-min Rain = 0
KSW1 031556Z 22009KT 31/19 A3009 RMK A01 T03060190  RH  050%=      5-min Rain = 0
KSW1 031557Z 22010KT 31/19 A3009 RMK A01 T03070191  RH  050%=      5-min Rain = 0
KSW1 031558Z 19009KT 31/19 A3009 RMK A01 T03070190  RH  050%=      5-min Rain = 0
KSW1 031559Z 18007KT 31/19 A3009 RMK A01 T03050190  RH  050%=      5-min Rain = 0
KSW1 031600Z 20009KT 31/19 A3009 RMK A01 T03060186  RH  049%=      5-min Rain = 0
KSW1 031601Z 21010KT 31/19 A3009 RMK A01 T03110186  RH  048%=      5-min Rain = 0
KSW1 031602Z 21008KT 31/19 A3009 RMK A01 T03120187  RH  047%=      5-min Rain = 0
KSW1 031603Z 21007KT 31/19 A3009 RMK A01 T03110188  RH  048%=      5-min Rain = 0
KSW1 031604Z 22008KT 31/19 A3009 RMK A01 T03120187  RH  047%=      5-min Rain = 0
KSW1 031605Z 22008KT 31/19 A3009 RMK A01 T03110187  RH  047%=      5-min Rain = 0
KSW1 031606Z 21007KT 31/19 A3009 RMK A01 T03100189  RH  048%=      5-min Rain = 0
KSW1 031607Z 22007KT 31/19 A3009 RMK A01 T03110189  RH  048%=      5-min Rain = 0
KSW1 031608Z 21008KT 31/19 A3009 RMK A01 T03110189  RH  048%=      5-min Rain = 0
KSW1 031609Z 21011KT 31/19 A3009 RMK A01 T03140191  RH  048%=      5-min Rain = 0
KSW1 031610Z 20010KT 32/19 A3009 RMK A01 T03160192  RH  048%=      5-min Rain = 0
KSW1 031611Z 18007KT 31/19 A3009 RMK A01 T03130191  RH  048%=      5-min Rain = 0
KSW1 031612Z 18006KT 31/19 A3009 RMK A01 T03100190  RH  049%=      5-min Rain = 0
KSW1 031613Z 20006KT 31/19 A3009 RMK A01 T03080192  RH  050%=      5-min Rain = 0
KSW1 031614Z 21008KT 31/19 A3009 RMK A01 T03080192  RH  050%=      5-min Rain = 0
KSW1 031615Z 21005KT 31/19 A3009 RMK A01 T03090188  RH  049%=      5-min Rain = 0
KSW1 031616Z 19008KT 31/19 A3009 RMK A01 T03100189  RH  049%=      5-min Rain = 0
KSW1 031617Z 20006KT 31/19 A3009 RMK A01 T03100188  RH  048%=      5-min Rain = 0
KSW1 031618Z 22008KT 31/19 A3009 RMK A01 T03110188  RH  048%=      5-min Rain = 0
KSW1 031619Z 21011KT 31/19 A3009 RMK A01 T03130190  RH  048%=      5-min Rain = 0
KSW1 031620Z 21009KT 32/19 A3009 RMK A01 T03160186  RH  046%=      5-min Rain = 0
KSW1 031621Z 21008KT 32/19 A3009 RMK A01 T03160187  RH  046%=      5-min Rain = 0
KSW1 031622Z 21008KT 32/19 A3009 RMK A01 T03150186  RH  046%=      5-min Rain = 0
KSW1 031623Z 20006KT 32/19 A3009 RMK A01 T03160185  RH  046%=      5-min Rain = 0
KSW1 031624Z 22010KT 32/19 A3009 RMK A01 T03160186  RH  046%=      5-min Rain = 0
KSW1 031625Z 21008KT 32/18 A3009 RMK A01 T03160181  RH  045%=      5-min Rain = 0
KSW1 031626Z 20008KT 32/18 A3009 RMK A01 T03180178  RH  043%=      5-min Rain = 0
KSW1 031627Z 22008KT 32/18 A3009 RMK A01 T03180177  RH  043%=      5-min Rain = 0
KSW1 031628Z 22009KT 32/18 A3009 RMK A01 T03170179  RH  044%=      5-min Rain = 0
KSW1 031629Z 21008KT 32/18 A3009 RMK A01 T03160181  RH  045%=      5-min Rain = 0
KSW1 031630Z 21008KT 32/18 A3009 RMK A01 T03200183  RH  044%=      5-min Rain = 0
KSW1 031631Z 19008KT 32/19 A3009 RMK A01 T03210186  RH  045%=      5-min Rain = 0
KSW1 031632Z 18007KT 32/19 A3009 RMK A01 T03230185  RH  044%=      5-min Rain = 0
KSW1 031633Z 22008KT 32/19 A3009 RMK A01 T03220185  RH  044%=      5-min Rain = 0
KSW1 031634Z 21010KT 32/18 A3009 RMK A01 T03240183  RH  043%=      5-min Rain = 0
KSW1 031635Z 23006KT 32/18 A3009 RMK A01 T03200182  RH  044%=      5-min Rain = 0
KSW1 031636Z 22006KT 32/18 A3009 RMK A01 T03200180  RH  043%=      5-min Rain = 0
KSW1 031637Z 19008KT 32/18 A3009 RMK A01 T03200181  RH  044%=      5-min Rain = 0
KSW1 031638Z 21007KT 32/18 A3009 RMK A01 T03200179  RH  043%=      5-min Rain = 0
KSW1 031639Z 20009KT 32/19 A3009 RMK A01 T03210185  RH  045%=      5-min Rain = 0
KSW1 031640Z 20010KT 32/18 A3009 RMK A01 T03220184  RH  044%=      5-min Rain = 0
KSW1 031641Z 20008KT 32/18 A3009 RMK A01 T03180184  RH  045%=      5-min Rain = 0
KSW1 031642Z 20009KT 32/19 A3009 RMK A01 T03180185  RH  045%=      5-min Rain = 0
KSW1 031643Z 17010KT 32/17 A3009 RMK A01 T03220174  RH  041%=      5-min Rain = 0
KSW1 031644Z 18010KT 33/16 A3009 RMK A01 T03250164  RH  038%=      5-min Rain = 0
KSW1 031645Z 19008KT 33/16 A3009 RMK A01 T03250159  RH  037%=      5-min Rain = 0
KSW1 031646Z 19005KT 32/16 A3008 RMK A01 T03240160  RH  037%=      5-min Rain = 0
KSW1 031647Z 16006KT 33/16 A3008 RMK A01 T03250164  RH  038%=      5-min Rain = 0
KSW1 031648Z 17010KT 33/17 A3008 RMK A01 T03270170  RH  039%=      5-min Rain = 0
KSW1 031649Z 17011KT 33/16 A3008 RMK A01 T03290158  RH  036%=      5-min Rain = 0
KSW1 031650Z 17009KT 33/15 A3008 RMK A01 T03300152  RH  034%=      5-min Rain = 0
KSW1 031651Z 17007KT 33/15 A3008 RMK A01 T03290152  RH  034%=      5-min Rain = 0
KSW1 031652Z 17009G14KT 33/16 A3008 RMK A01 T03270160  RH  037%=      5-min Rain = 0
KSW1 031653Z 18011KT 33/16 A3008 RMK A01 T03270158  RH  036%=      5-min Rain = 0
KSW1 031654Z 19009KT 33/16 A3008 RMK A01 T03270161  RH  037%=      5-min Rain = 0
KSW1 031655Z 19010KT 33/16 A3008 RMK A01 T03290160  RH  036%=      5-min Rain = 0
KSW1 031656Z 17006KT 33/16 A3008 RMK A01 T03270158  RH  036%=      5-min Rain = 0
KSW1 031657Z 15007KT 33/16 A3008 RMK A01 T03260163  RH  038%=      5-min Rain = 0
KSW1 031658Z 17007KT 33/17 A3008 RMK A01 T03280165  RH  038%=      5-min Rain = 0
KSW1 031659Z 16011KT 33/17 A3008 RMK A01 T03330169  RH  038%=      5-min Rain = 0
KSW1 031700Z 17007KT 33/17 A3008 RMK A01 T03330166  RH  037%=      5-min Rain = 0
KSW1 031701Z 20004KT 33/17 A3008 RMK A01 T03320166  RH  037%=      5-min Rain = 0
KSW1 031702Z 22006KT 33/16 A3008 RMK A01 T03330162  RH  036%=      5-min Rain = 0
KSW1 031703Z 19007KT 33/16 A3008 RMK A01 T03300158  RH  036%=      5-min Rain = 0
KSW1 031704Z 17007KT 33/16 A3008 RMK A01 T03300160  RH  036%=      5-min Rain = 0
KSW1 031705Z 16007KT 33/16 A3008 RMK A01 T03300159  RH  036%=      5-min Rain = 0
KSW1 031706Z 15005KT 33/16 A3008 RMK A01 T03290158  RH  036%=      5-min Rain = 0
KSW1 031707Z 18008KT 33/17 A3008 RMK A01 T03290169  RH  038%=      5-min Rain = 0
KSW1 031708Z 19009KT 33/17 A3008 RMK A01 T03300174  RH  040%=      5-min Rain = 0
KSW1 031709Z 17011KT 33/16 A3008 RMK A01 T03300160  RH  036%=      5-min Rain = 0
KSW1 031710Z 15008KT 33/16 A3008 RMK A01 T03310158  RH  035%=      5-min Rain = 0
KSW1 031711Z 16008KT 33/15 A3008 RMK A01 T03340154  RH  034%=      5-min Rain = 0
KSW1 031712Z 18007KT 33/15 A3008 RMK A01 T03340154  RH  034%=      5-min Rain = 0
KSW1 031713Z 17010KT 34/16 A3008 RMK A01 T03360157  RH  034%=      5-min Rain = 0
KSW1 031714Z 16011KT 34/16 A3008 RMK A01 T03370159  RH  035%=      5-min Rain = 0
KSW1 031715Z 15010KT 34/16 A3008 RMK A01 T03350160  RH  035%=      5-min Rain = 0
KSW1 031716Z 16006KT 33/16 A3008 RMK A01 T03320156  RH  035%=      5-min Rain = 0
KSW1 031717Z 16004KT 33/16 A3008 RMK A01 T03300156  RH  035%=      5-min Rain = 0
KSW1 031718Z 16003KT 33/15 A3008 RMK A01 T03290153  RH  035%=      5-min Rain = 0
KSW1 031719Z 17004KT 33/15 A3008 RMK A01 T03280154  RH  035%=      5-min Rain = 0
KSW1 031720Z 19008G13KT 33/15 A3008 RMK A01 T03280154  RH  035%=      5-min Rain = 0
KSW1 031721Z 19010KT 33/16 A3008 RMK A01 T03340156  RH  034%=      5-min Rain = 0
KSW1 031722Z 18010KT 34/15 A3008 RMK A01 T03380153  RH  033%=      5-min Rain = 0
KSW1 031723Z 17011KT 34/15 A3008 RMK A01 T03370153  RH  033%=      5-min Rain = 0
KSW1 031724Z 19007KT 34/15 A3008 RMK A01 T03370151  RH  033%=      5-min Rain = 0
KSW1 031725Z 17005KT 34/15 A3008 RMK A01 T03370153  RH  033%=      5-min Rain = 0
KSW1 031726Z 18005KT 34/15 A3008 RMK A01 T03360152  RH  033%=      5-min Rain = 0
KSW1 031727Z 18006KT 33/15 A3008 RMK A01 T03320150  RH  034%=      5-min Rain = 0
KSW1 031728Z 18006KT 33/16 A3008 RMK A01 T03310155  RH  035%=      5-min Rain = 0
KSW1 031729Z 17004KT 33/15 A3008 RMK A01 T03320154  RH  034%=      5-min Rain = 0
KSW1 031730Z 17010KT 33/16 A3008 RMK A01 T03330162  RH  036%=      5-min Rain = 0
KSW1 031731Z 18010KT 34/16 A3008 RMK A01 T03370162  RH  035%=      5-min Rain = 0
KSW1 031732Z 19007KT 34/16 A3008 RMK A01 T03350159  RH  035%=      5-min Rain = 0
KSW1 031733Z 19008KT 33/16 A3008 RMK A01 T03330163  RH  036%=      5-min Rain = 0
KSW1 031734Z 16008KT 34/16 A3008 RMK A01 T03360164  RH  036%=      5-min Rain = 0
KSW1 031735Z 16012KT 34/16 A3008 RMK A01 T03380163  RH  035%=      5-min Rain = 0
KSW1 031736Z 17012KT 34/16 A3008 RMK A01 T03390155  RH  033%=      5-min Rain = 0
KSW1 031737Z 16011KT 34/15 A3008 RMK A01 T03380151  RH  033%=      5-min Rain = 0
KSW1 031738Z 15008KT 34/15 A3008 RMK A01 T03380151  RH  032%=      5-min Rain = 0
KSW1 031739Z 13005KT 34/15 A3008 RMK A01 T03370153  RH  033%=      5-min Rain = 0
KSW1 031740Z 12003KT 34/15 A3008 RMK A01 T03370153  RH  033%=      5-min Rain = 0
KSW1 031741Z 13002KT 34/15 A3008 RMK A01 T03380154  RH  033%=      5-min Rain = 0
KSW1 031742Z 17009KT 34/15 A3008 RMK A01 T03400154  RH  033%=      5-min Rain = 0
KSW1 031743Z 17012KT 34/16 A3008 RMK A01 T03430160  RH  034%=      5-min Rain = 0
KSW1 031744Z 17008KT 34/16 A3008 RMK A01 T03420158  RH  033%=      5-min Rain = 0
KSW1 031745Z 18007KT 34/16 A3008 RMK A01 T03380158  RH  034%=      5-min Rain = 0
KSW1 031746Z 14007KT 34/16 A3008 RMK A01 T03370157  RH  034%=      5-min Rain = 0
KSW1 031747Z 15007KT 34/16 A3008 RMK A01 T03380157  RH  034%=      5-min Rain = 0
KSW1 031748Z 14003G10KT 34/15 A3008 RMK A01 T03380153  RH  033%=      5-min Rain = 0
KSW1 031749Z 13009KT 34/16 A3008 RMK A01 T03370157  RH  034%=      5-min Rain = 0
KSW1 031750Z 14009KT 34/16 A3008 RMK A01 T03420159  RH  034%=      5-min Rain = 0
KSW1 031751Z 11010KT 35/16 A3008 RMK A01 T03480155  RH  032%=      5-min Rain = 0
KSW1 031752Z 13007KT 35/16 A3008 RMK A01 T03520155  RH  031%=      5-min Rain = 0
KSW1 031753Z 14006KT 35/16 A3008 RMK A01 T03540155  RH  031%=      5-min Rain = 0
KSW1 031754Z 13005KT 35/15 A3008 RMK A01 T03530151  RH  030%=      5-min Rain = 0
KSW1 031755Z 14006KT 35/15 A3008 RMK A01 T03520152  RH  030%=      5-min Rain = 0
KSW1 031756Z 14010KT 35/16 A3007 RMK A01 T03520156  RH  031%=      5-min Rain = 0
KSW1 031757Z 13005KT 35/15 A3008 RMK A01 T03470152  RH  031%=      5-min Rain = 0
KSW1 031758Z 10004KT 34/15 A3007 RMK A01 T03430152  RH  032%=      5-min Rain = 0
KSW1 031759Z 15008G13KT 35/16 A3008 RMK A01 T03460155  RH  032%=      5-min Rain = 0
KSW1 031800Z 17012KT 35/16 A3007 RMK A01 T03480156  RH  032%=      5-min Rain = 0
KSW1 031801Z 15006KT 34/15 A3008 RMK A01 T03430151  RH  032%=      5-min Rain = 0
KSW1 031802Z 15009G14KT 34/15 A3007 RMK A01 T03390151  RH  032%=      5-min Rain = 0
KSW1 031803Z 16012KT 34/15 A3007 RMK A01 T03410150  RH  032%=      5-min Rain = 0
KSW1 031804Z 16011G16KT 34/14 A3007 RMK A01 T03430144  RH  030%=      5-min Rain = 0
KSW1 031805Z 16010KT 34/14 A3007 RMK A01 T03420142  RH  030%=      5-min Rain = 0
KSW1 031806Z 14009KT 34/14 A3007 RMK A01 T03420142  RH  030%=      5-min Rain = 0
KSW1 031807Z 11009KT 34/14 A3007 RMK A01 T03410144  RH  031%=      5-min Rain = 0
KSW1 031808Z 09011KT 34/15 A3007 RMK A01 T03440145  RH  030%=      5-min Rain = 0
KSW1 031809Z 08009KT 35/14 A3007 RMK A01 T03480144  RH  029%=      5-min Rain = 0
KSW1 031810Z 09007KT 35/15 A3007 RMK A01 T03480146  RH  030%=      5-min Rain = 0
KSW1 031811Z 09003KT 35/15 A3007 RMK A01 T03450146  RH  030%=      5-min Rain = 0
KSW1 031812Z 11004KT 34/15 A3007 RMK A01 T03430146  RH  031%=      5-min Rain = 0
KSW1 031813Z 12005KT 34/15 A3007 RMK A01 T03420146  RH  031%=      5-min Rain = 0
KSW1 031814Z 11007G13KT 34/15 A3007 RMK A01 T03430150  RH  031%=      5-min Rain = 0
KSW1 031815Z 13013KT 35/14 A3007 RMK A01 T03490144  RH  029%=      5-min Rain = 0
KSW1 031816Z 14006KT 35/14 A3007 RMK A01 T03460137  RH  029%=      5-min Rain = 0
KSW1 031817Z 13003KT 34/14 A3007 RMK A01 T03400139  RH  030%=      5-min Rain = 0
KSW1 031818Z 09003KT 34/14 A3007 RMK A01 T03410137  RH  029%=      5-min Rain = 0
KSW1 031819Z 08002KT 34/14 A3007 RMK A01 T03410140  RH  030%=      5-min Rain = 0
KSW1 031820Z 12003KT 34/15 A3007 RMK A01 T03430145  RH  030%=      5-min Rain = 0
KSW1 031821Z 12004KT 35/15 A3007 RMK A01 T03480147  RH  030%=      5-min Rain = 0
KSW1 031822Z 18006KT 35/15 A3007 RMK A01 T03500146  RH  030%=      5-min Rain = 0
KSW1 031823Z 14010KT 35/15 A3007 RMK A01 T03500151  RH  030%=      5-min Rain = 0
KSW1 031824Z 16010KT 35/14 A3007 RMK A01 T03530141  RH  028%=      5-min Rain = 0
KSW1 031825Z 16005KT 35/14 A3007 RMK A01 T03520142  RH  028%=      5-min Rain = 0
KSW1 031826Z 16008G14KT 35/14 A3007 RMK A01 T03480140  RH  029%=      5-min Rain = 0
KSW1 031827Z 14007KT 35/13 A3007 RMK A01 T03470133  RH  028%=      5-min Rain = 0
KSW1 031828Z 10008KT 35/14 A3007 RMK A01 T03480141  RH  029%=      5-min Rain = 0
KSW1 031829Z 10010KT 35/14 A3007 RMK A01 T03510140  RH  028%=      5-min Rain = 0
KSW1 031830Z 11010KT 35/14 A3007 RMK A01 T03530143  RH  029%=      5-min Rain = 0
KSW1 031831Z 14010KT 35/14 A3007 RMK A01 T03530144  RH  029%=      5-min Rain = 0
KSW1 031832Z 11008KT 35/14 A3007 RMK A01 T03500143  RH  029%=      5-min Rain = 0
KSW1 031833Z 14005KT 35/14 A3007 RMK A01 T03490143  RH  029%=      5-min Rain = 0
KSW1 031834Z 16010KT 35/15 A3006 RMK A01 T03490145  RH  029%=      5-min Rain = 0
KSW1 031835Z 14014KT 35/14 A3006 RMK A01 T03530143  RH  028%=      5-min Rain = 0
KSW1 031836Z 16010KT 35/14 A3006 RMK A01 T03520144  RH  029%=      5-min Rain = 0
KSW1 031837Z 16008G14KT 35/14 A3006 RMK A01 T03500142  RH  029%=      5-min Rain = 0
KSW1 031838Z 14013KT 35/14 A3006 RMK A01 T03510142  RH  029%=      5-min Rain = 0
KSW1 031839Z 11013KT 35/14 A3006 RMK A01 T03510139  RH  028%=      5-min Rain = 0
KSW1 031840Z 10012KT 35/14 A3006 RMK A01 T03480139  RH  028%=      5-min Rain = 0
KSW1 031841Z 10006KT 35/14 A3006 RMK A01 T03480138  RH  028%=      5-min Rain = 0
KSW1 031842Z 13005KT 35/14 A3006 RMK A01 T03470138  RH  028%=      5-min Rain = 0
KSW1 031843Z 13005KT 35/14 A3006 RMK A01 T03470140  RH  029%=      5-min Rain = 0
KSW1 031844Z 11008KT 35/14 A3006 RMK A01 T03500139  RH  028%=      5-min Rain = 0
KSW1 031845Z 13006KT 35/14 A3006 RMK A01 T03520139  RH  028%=      5-min Rain = 0
KSW1 031846Z 17009KT 35/14 A3006 RMK A01 T03540141  RH  028%=      5-min Rain = 0
KSW1 031847Z 17013KT 36/14 A3006 RMK A01 T03550137  RH  027%=      5-min Rain = 0
KSW1 031848Z 16012KT 35/13 A3006 RMK A01 T03530133  RH  027%=      5-min Rain = 0
KSW1 031849Z 17008KT 35/13 A3006 RMK A01 T03490131  RH  027%=      5-min Rain = 0
KSW1 031850Z 16009KT 35/14 A3006 RMK A01 T03470138  RH  029%=      5-min Rain = 0
KSW1 031851Z 14010KT 35/14 A3006 RMK A01 T03480135  RH  028%=      5-min Rain = 0
KSW1 031852Z 15009KT 35/13 A3006 RMK A01 T03490133  RH  027%=      5-min Rain = 0
KSW1 031853Z 12008KT 35/13 A3006 RMK A01 T03490134  RH  028%=      5-min Rain = 0
KSW1 031854Z 12007KT 35/14 A3006 RMK A01 T03520136  RH  027%=      5-min Rain = 0
KSW1 031855Z 13008KT 35/14 A3006 RMK A01 T03530137  RH  027%=      5-min Rain = 0
KSW1 031856Z 11004KT 35/14 A3006 RMK A01 T03500137  RH  028%=      5-min Rain = 0
KSW1 031857Z 12011KT 35/14 A3005 RMK A01 T03480139  RH  029%=      5-min Rain = 0
KSW1 031858Z 14010KT 35/14 A3006 RMK A01 T03520141  RH  028%=      5-min Rain = 0
KSW1 031859Z 15008KT 36/14 A3006 RMK A01 T03570141  RH  028%=      5-min Rain = 0
KSW1 031900Z 15008KT 36/14 A3006 RMK A01 T03570142  RH  028%=      5-min Rain = 0
KSW1 031901Z 15009KT 36/14 A3006 RMK A01 T03570139  RH  027%=      5-min Rain = 0
KSW1 031902Z 13009KT 36/14 A3006 RMK A01 T03550135  RH  027%=      5-min Rain = 0
KSW1 031903Z 11007KT 35/13 A3006 RMK A01 T03520131  RH  027%=      5-min Rain = 0
KSW1 031904Z 10006KT 35/13 A3006 RMK A01 T03510133  RH  027%=      5-min Rain = 0
KSW1 031905Z 11005KT 35/13 A3006 RMK A01 T03530134  RH  027%=      5-min Rain = 0
KSW1 031906Z 12004KT 35/13 A3006 RMK A01 T03520133  RH  027%=      5-min Rain = 0
KSW1 031907Z 11005KT 35/13 A3006 RMK A01 T03490132  RH  027%=      5-min Rain = 0
KSW1 031908Z 10003KT 35/13 A3006 RMK A01 T03460132  RH  027%=      5-min Rain = 0
KSW1 031909Z 15008KT 35/14 A3006 RMK A01 T03450136  RH  028%=      5-min Rain = 0
KSW1 031910Z 14005KT 35/13 A3006 RMK A01 T03470132  RH  027%=      5-min Rain = 0
KSW1 031911Z 14005G11KT 35/13 A3005 RMK A01 T03480132  RH  027%=      5-min Rain = 0
KSW1 031912Z 11004KT 35/13 A3005 RMK A01 T03470133  RH  027%=      5-min Rain = 0
KSW1 031913Z 12009KT 35/13 A3005 RMK A01 T03510132  RH  027%=      5-min Rain = 0
KSW1 031914Z 13012KT 36/13 A3005 RMK A01 T03580132  RH  026%=      5-min Rain = 0
KSW1 031915Z 15010KT 36/13 A3005 RMK A01 T03580133  RH  026%=      5-min Rain = 0
KSW1 031916Z 16008KT 36/13 A3005 RMK A01 T03560134  RH  027%=      5-min Rain = 0
KSW1 031917Z 15008KT 36/14 A3005 RMK A01 T03550138  RH  027%=      5-min Rain = 0
KSW1 031918Z 15008KT 36/14 A3005 RMK A01 T03550142  RH  028%=      5-min Rain = 0
KSW1 031919Z 15008KT 36/14 A3005 RMK A01 T03560143  RH  028%=      5-min Rain = 0
KSW1 031920Z 12010KT 36/14 A3005 RMK A01 T03550140  RH  028%=      5-min Rain = 0
KSW1 031921Z 11010KT 36/14 A3005 RMK A01 T03570140  RH  027%=      5-min Rain = 0
KSW1 031922Z 12010KT 36/14 A3005 RMK A01 T03630139  RH  026%=      5-min Rain = 0
KSW1 031923Z 11009KT 36/14 A3005 RMK A01 T03640137  RH  026%=      5-min Rain = 0
KSW1 031924Z 16007KT 36/14 A3005 RMK A01 T03640142  RH  027%=      5-min Rain = 0
KSW1 031925Z 15006KT 37/14 A3005 RMK A01 T03650139  RH  026%=      5-min Rain = 0
KSW1 031926Z 12007KT 36/14 A3005 RMK A01 T03640140  RH  026%=      5-min Rain = 0
KSW1 031927Z 15010KT 36/14 A3005 RMK A01 T03640143  RH  027%=      5-min Rain = 0
KSW1 031928Z 17011KT 36/14 A3005 RMK A01 T03640143  RH  027%=      5-min Rain = 0
KSW1 031929Z 16010KT 36/14 A3005 RMK A01 T03620142  RH  027%=      5-min Rain = 0
KSW1 031930Z 15005KT 36/14 A3005 RMK A01 T03580138  RH  027%=      5-min Rain = 0
KSW1 031931Z 18005KT 36/14 A3005 RMK A01 T03560138  RH  027%=      5-min Rain = 0
KSW1 031932Z 16006G11KT 36/14 A3005 RMK A01 T03550140  RH  028%=      5-min Rain = 0
KSW1 031933Z 15008KT 36/14 A3005 RMK A01 T03570139  RH  027%=      5-min Rain = 0
KSW1 031934Z 15007KT 36/14 A3005 RMK A01 T03560139  RH  027%=      5-min Rain = 0
KSW1 031935Z 15006KT 36/14 A3005 RMK A01 T03570140  RH  027%=      5-min Rain = 0
KSW1 031936Z 16004KT 36/14 A3005 RMK A01 T03590139  RH  027%=      5-min Rain = 0
KSW1 031937Z 18005KT 36/14 A3005 RMK A01 T03600136  RH  026%=      5-min Rain = 0
KSW1 031938Z 17005KT 36/13 A3005 RMK A01 T03580134  RH  026%=      5-min Rain = 0
KSW1 031939Z 16009KT 36/14 A3005 RMK A01 T03560141  RH  028%=      5-min Rain = 0
KSW1 031940Z 12011KT 36/14 A3005 RMK A01 T03580137  RH  027%=      5-min Rain = 0
KSW1 031941Z 11007KT 36/13 A3005 RMK A01 T03570133  RH  026%=      5-min Rain = 0
KSW1 031942Z 10008KT 35/13 A3005 RMK A01 T03540134  RH  027%=      5-min Rain = 0
KSW1 031943Z 10005KT 35/13 A3005 RMK A01 T03540132  RH  026%=      5-min Rain = 0
KSW1 031944Z 09004KT 35/13 A3004 RMK A01 T03520134  RH  027%=      5-min Rain = 0
KSW1 031945Z 15010KT 36/13 A3004 RMK A01 T03550134  RH  027%=      5-min Rain = 0
KSW1 031946Z 16007KT 36/13 A3004 RMK A01 T03550134  RH  027%=      5-min Rain = 0
KSW1 031947Z 14006KT 35/14 A3004 RMK A01 T03540136  RH  027%=      5-min Rain = 0
KSW1 031948Z 15006KT 36/14 A3004 RMK A01 T03550137  RH  027%=      5-min Rain = 0
KSW1 031949Z 16007KT 36/14 A3004 RMK A01 T03580136  RH  027%=      5-min Rain = 0
KSW1 031950Z 15008KT 36/14 A3004 RMK A01 T03580140  RH  027%=      5-min Rain = 0
KSW1 031951Z 15007G12KT 36/14 A3004 RMK A01 T03610138  RH  026%=      5-min Rain = 0
KSW1 031952Z 12012KT 36/14 A3004 RMK A01 T03630140  RH  026%=      5-min Rain = 0
KSW1 031953Z 11011KT 36/14 A3004 RMK A01 T03630136  RH  026%=      5-min Rain = 0
KSW1 031954Z 14010KT 36/14 A3004 RMK A01 T03620139  RH  026%=      5-min Rain = 0
KSW1 031955Z 17014KT 37/14 A3004 RMK A01 T03650136  RH  025%=      5-min Rain = 0
KSW1 031956Z 17015KT 36/13 A3004 RMK A01 T03630134  RH  025%=      5-min Rain = 0
KSW1 031957Z 17013KT 36/13 A3004 RMK A01 T03610131  RH  025%=      5-min Rain = 0
KSW1 031958Z 15012KT 36/13 A3004 RMK A01 T03580131  RH  026%=      5-min Rain = 0
KSW1 031959Z 16010KT 36/13 A3004 RMK A01 T03600131  RH  025%=      5-min Rain = 0
KSW1 032000Z 15009KT 36/13 A3004 RMK A01 T03610132  RH  025%=      5-min Rain = 0
KSW1 032001Z 17008KT 36/13 A3004 RMK A01 T03620132  RH  025%=      5-min Rain = 0
KSW1 032002Z 19005KT 36/13 A3004 RMK A01 T03590127  RH  025%=      5-min Rain = 0
KSW1 032003Z 13008G13KT 36/13 A3004 RMK A01 T03570130  RH  026%=      5-min Rain = 0
KSW1 032004Z 14007KT 36/13 A3004 RMK A01 T03560132  RH  026%=      5-min Rain = 0
KSW1 032005Z 13003KT 36/13 A3004 RMK A01 T03570131  RH  026%=      5-min Rain = 0
KSW1 032006Z 08002KT 35/13 A3004 RMK A01 T03540132  RH  026%=      5-min Rain = 0
KSW1 032007Z 22006G16KT 35/13 A3004 RMK A01 T03530133  RH  027%=      5-min Rain = 0
KSW1 032008Z 11012KT 36/13 A3004 RMK A01 T03590133  RH  026%=      5-min Rain = 0
KSW1 032009Z 12011KT 36/13 A3004 RMK A01 T03620132  RH  025%=      5-min Rain = 0
KSW1 032010Z 11012KT 36/13 A3004 RMK A01 T03630132  RH  025%=      5-min Rain = 0
KSW1 032011Z 11010KT 36/13 A3004 RMK A01 T03600132  RH  026%=      5-min Rain = 0
KSW1 032012Z 12009KT 36/13 A3004 RMK A01 T03590132  RH  026%=      5-min Rain = 0
KSW1 032013Z 15014KT 36/13 A3004 RMK A01 T03620133  RH  025%=      5-min Rain = 0
KSW1 032014Z 14012KT 36/13 A3004 RMK A01 T03620130  RH  025%=      5-min Rain = 0
KSW1 032015Z 14011G18KT 36/13 A3004 RMK A01 T03590130  RH  025%=      5-min Rain = 0
KSW1 032016Z 17012G18KT 36/14 A3004 RMK A01 T03590136  RH  026%=      5-min Rain = 0
KSW1 032017Z 15008KT 36/13 A3004 RMK A01 T03600131  RH  025%=      5-min Rain = 0
KSW1 032018Z 14005KT 36/13 A3004 RMK A01 T03580129  RH  025%=      5-min Rain = 0
KSW1 032019Z 16003KT 36/13 A3004 RMK A01 T03580133  RH  026%=      5-min Rain = 0
KSW1 032020Z 14006KT 36/14 A3004 RMK A01 T03590136  RH  026%=      5-min Rain = 0
KSW1 032021Z 10005KT 36/13 A3004 RMK A01 T03600131  RH  025%=      5-min Rain = 0
KSW1 032022Z 08005KT 36/13 A3004 RMK A01 T03620127  RH  024%=      5-min Rain = 0
KSW1 032023Z 09007G12KT 36/13 A3004 RMK A01 T03630130  RH  025%=      5-min Rain = 0
KSW1 032024Z 10011KT 37/13 A3004 RMK A01 T03680129  RH  024%=      5-min Rain = 0
KSW1 032025Z 11007KT 36/13 A3003 RMK A01 T03640128  RH  024%=      5-min Rain = 0
KSW1 032026Z 10004KT 36/13 A3003 RMK A01 T03620128  RH  025%=      5-min Rain = 0
KSW1 032027Z 11009KT 36/13 A3003 RMK A01 T03640132  RH  025%=      5-min Rain = 0
KSW1 032028Z 13008KT 37/13 A3003 RMK A01 T03650129  RH  024%=      5-min Rain = 0
KSW1 032029Z 13010KT 36/13 A3003 RMK A01 T03600131  RH  025%=      5-min Rain = 0
KSW1 032030Z 10011KT 36/13 A3003 RMK A01 T03580129  RH  025%=      5-min Rain = 0
KSW1 032031Z 12012KT 36/13 A3003 RMK A01 T03570129  RH  026%=      5-min Rain = 0
KSW1 032032Z 10012KT 36/13 A3003 RMK A01 T03610130  RH  025%=      5-min Rain = 0
KSW1 032033Z 08009KT 36/13 A3003 RMK A01 T03630129  RH  025%=      5-min Rain = 0
KSW1 032034Z 08007KT 36/13 A3003 RMK A01 T03610130  RH  025%=      5-min Rain = 0
KSW1 032035Z 11009KT 36/13 A3003 RMK A01 T03590132  RH  026%=      5-min Rain = 0
KSW1 032036Z 11008KT 36/13 A3003 RMK A01 T03580131  RH  026%=      5-min Rain = 0
KSW1 032037Z 12011KT 36/13 A3003 RMK A01 T03570131  RH  026%=      5-min Rain = 0
KSW1 032038Z 15011KT 36/13 A3003 RMK A01 T03610134  RH  026%=      5-min Rain = 0
KSW1 032039Z 13007KT 36/13 A3003 RMK A01 T03600133  RH  026%=      5-min Rain = 0
KSW1 032040Z 16005KT 36/13 A3003 RMK A01 T03570133  RH  026%=      5-min Rain = 0
KSW1 032041Z 18004KT 36/13 A3003 RMK A01 T03560131  RH  026%=      5-min Rain = 0
KSW1 032042Z 20006KT 36/13 A3003 RMK A01 T03570134  RH  026%=      5-min Rain = 0
KSW1 032043Z 20007KT 36/14 A3003 RMK A01 T03600135  RH  026%=      5-min Rain = 0
KSW1 032044Z 21008KT 36/13 A3003 RMK A01 T03610132  RH  025%=      5-min Rain = 0
KSW1 032045Z 20007KT 36/13 A3003 RMK A01 T03610130  RH  025%=      5-min Rain = 0
KSW1 032046Z 12009KT 36/13 A3003 RMK A01 T03630134  RH  025%=      5-min Rain = 0
KSW1 032047Z 12012KT 37/13 A3003 RMK A01 T03660133  RH  025%=      5-min Rain = 0
KSW1 032048Z 15015KT 37/14 A3002 RMK A01 T03680136  RH  025%=      5-min Rain = 0
KSW1 032049Z 15015G21KT 37/14 A3003 RMK A01 T03650140  RH  026%=      5-min Rain = 0
KSW1 032050Z 15011KT 36/14 A3003 RMK A01 T03610136  RH  026%=      5-min Rain = 0
KSW1 032051Z 17009KT 36/14 A3002 RMK A01 T03580139  RH  027%=      5-min Rain = 0
KSW1 032052Z 19007KT 36/14 A3002 RMK A01 T03600137  RH  026%=      5-min Rain = 0
KSW1 032053Z 18007KT 36/14 A3002 RMK A01 T03610137  RH  026%=      5-min Rain = 0
KSW1 032054Z 15016G26KT 36/13 A3002 RMK A01 T03630134  RH  025%=      5-min Rain = 0
KSW1 032055Z 12010G15KT 36/13 A3002 RMK A01 T03640129  RH  025%=      5-min Rain = 0
KSW1 032056Z 14008KT 36/13 A3002 RMK A01 T03600128  RH  025%=      5-min Rain = 0
KSW1 032057Z 13014G19KT 36/13 A3002 RMK A01 T03600128  RH  025%=      5-min Rain = 0
KSW1 032058Z 11014KT 36/13 A3002 RMK A01 T03590131  RH  025%=      5-min Rain = 0
KSW1 032059Z 10012KT 36/13 A3002 RMK A01 T03610134  RH  026%=      5-min Rain = 0
KSW1 032100Z 11011KT 36/13 A3002 RMK A01 T03620133  RH  025%=      5-min Rain = 0
KSW1 032101Z 11010KT 36/13 A3002 RMK A01 T03610131  RH  025%=      5-min Rain = 0
KSW1 032102Z 14011KT 36/13 A3002 RMK A01 T03600132  RH  025%=      5-min Rain = 0
KSW1 032103Z 15010KT 36/13 A3002 RMK A01 T03590131  RH  025%=      5-min Rain = 0
KSW1 032104Z 13005KT 36/13 A3002 RMK A01 T03560130  RH  026%=      5-min Rain = 0
KSW1 032105Z 14009KT 36/13 A3002 RMK A01 T03560133  RH  026%=      5-min Rain = 0
KSW1 032106Z 17008KT 36/14 A3002 RMK A01 T03610136  RH  026%=      5-min Rain = 0
KSW1 032107Z 17011KT 36/14 A3002 RMK A01 T03640135  RH  025%=      5-min Rain = 0
KSW1 032108Z 18014KT 36/13 A3002 RMK A01 T03640131  RH  025%=      5-min Rain = 0
KSW1 032109Z 17011G17KT 36/13 A3002 RMK A01 T03630134  RH  025%=      5-min Rain = 0
KSW1 032110Z 16012KT 36/13 A3002 RMK A01 T03630133  RH  025%=      5-min Rain = 0
KSW1 032111Z 17012KT 36/13 A3002 RMK A01 T03620133  RH  025%=      5-min Rain = 0
KSW1 032112Z 17008KT 36/13 A3002 RMK A01 T03610131  RH  025%=      5-min Rain = 0
KSW1 032113Z 17006KT 36/13 A3002 RMK A01 T03610132  RH  025%=      5-min Rain = 0
KSW1 032114Z 15002KT 36/13 A3002 RMK A01 T03600128  RH  025%=      5-min Rain = 0
KSW1 032115Z 17001KT 36/13 A3002 RMK A01 T03580130  RH  025%=      5-min Rain = 0
KSW1 032116Z 17003KT 36/14 A3001 RMK A01 T03600135  RH  026%=      5-min Rain = 0
KSW1 032117Z 20010G17KT 36/13 A3001 RMK A01 T03630134  RH  025%=      5-min Rain = 0
KSW1 032118Z 10011KT 37/13 A3001 RMK A01 T03680131  RH  024%=      5-min Rain = 0
KSW1 032119Z 10010KT 37/12 A3001 RMK A01 T03690124  RH  023%=      5-min Rain = 0
KSW1 032120Z 10008KT 37/12 A3001 RMK A01 T03650120  RH  023%=      5-min Rain = 0
KSW1 032121Z 12009KT 36/12 A3001 RMK A01 T03630122  RH  023%=      5-min Rain = 0
KSW1 032122Z 12008G13KT 37/13 A3001 RMK A01 T03650125  RH  024%=      5-min Rain = 0
KSW1 032123Z 13005KT 36/12 A3001 RMK A01 T03640123  RH  024%=      5-min Rain = 0
KSW1 032124Z 14006KT 36/13 A3001 RMK A01 T03630126  RH  024%=      5-min Rain = 0
KSW1 032125Z 16010G16KT 36/13 A3001 RMK A01 T03620132  RH  025%=      5-min Rain = 0
KSW1 032126Z 17013KT 36/13 A3001 RMK A01 T03610134  RH  026%=      5-min Rain = 0
KSW1 032127Z 16011KT 36/13 A3001 RMK A01 T03610127  RH  025%=      5-min Rain = 0
KSW1 032128Z 15011KT 36/13 A3001 RMK A01 T03580127  RH  025%=      5-min Rain = 0
KSW1 032129Z 15008KT 36/13 A3001 RMK A01 T03570125  RH  025%=      5-min Rain = 0
KSW1 032130Z 15006G12KT 36/12 A3001 RMK A01 T03550123  RH  025%=      5-min Rain = 0
KSW1 032131Z 16009KT 36/13 A3001 RMK A01 T03560128  RH  025%=      5-min Rain = 0
KSW1 032132Z 14010KT 36/13 A3001 RMK A01 T03590125  RH  024%=      5-min Rain = 0
KSW1 032133Z 14005KT 36/12 A3001 RMK A01 T03570122  RH  024%=      5-min Rain = 0
KSW1 032134Z 15012KT 35/13 A3001 RMK A01 T03540126  RH  025%=      5-min Rain = 0
KSW1 032135Z 14009G15KT 35/12 A3001 RMK A01 T03540123  RH  025%=      5-min Rain = 0
KSW1 032136Z 19002KT 35/12 A3001 RMK A01 T03540122  RH  025%=      5-min Rain = 0
KSW1 032137Z 18004KT 35/12 A3001 RMK A01 T03540122  RH  025%=      5-min Rain = 0
KSW1 032138Z 16004KT 35/13 A3001 RMK A01 T03540125  RH  025%=      5-min Rain = 0
KSW1 032139Z 16006KT 36/13 A3001 RMK A01 T03550128  RH  025%=      5-min Rain = 0
KSW1 032140Z 15007KT 36/13 A3001 RMK A01 T03580127  RH  025%=      5-min Rain = 0
KSW1 032141Z 12008KT 36/13 A3001 RMK A01 T03600125  RH  024%=      5-min Rain = 0
KSW1 032142Z 12008KT 36/12 A3001 RMK A01 T03600121  RH  024%=      5-min Rain = 0
KSW1 032143Z 10007KT 36/12 A3001 RMK A01 T03570121  RH  024%=      5-min Rain = 0
KSW1 032144Z 13005KT 36/12 A3001 RMK A01 T03570121  RH  024%=      5-min Rain = 0
KSW1 032145Z 17007KT 36/12 A3001 RMK A01 T03580124  RH  024%=      5-min Rain = 0
KSW1 032146Z 17006KT 36/12 A3001 RMK A01 T03590124  RH  024%=      5-min Rain = 0
KSW1 032147Z 15007KT 36/12 A3001 RMK A01 T03570121  RH  024%=      5-min Rain = 0
KSW1 032148Z 15008KT 36/12 A3001 RMK A01 T03570123  RH  024%=      5-min Rain = 0
KSW1 032149Z 16011KT 36/12 A3001 RMK A01 T03580122  RH  024%=      5-min Rain = 0
KSW1 032150Z 15007KT 36/12 A3001 RMK A01 T03550120  RH  024%=      5-min Rain = 0
KSW1 032151Z 14006KT 35/12 A3001 RMK A01 T03530122  RH  025%=      5-min Rain = 0
KSW1 032152Z 13004KT 36/12 A3001 RMK A01 T03560122  RH  024%=      5-min Rain = 0
KSW1 032153Z 19009KT 36/12 A3001 RMK A01 T03590122  RH  024%=      5-min Rain = 0
KSW1 032154Z 18010KT 36/12 A3001 RMK A01 T03590121  RH  024%=      5-min Rain = 0
KSW1 032155Z 18008KT 36/12 A30 RMK A01 T03560122  RH  024%=      5-min Rain = 0
KSW1 032156Z 16007KT 36/12 A30 RMK A01 T03580123  RH  024%=      5-min Rain = 0
KSW1 032157Z 15009KT 36/12 A30 RMK A01 T03580124  RH  024%=      5-min Rain = 0
KSW1 032158Z 14011KT 36/12 A30 RMK A01 T03580124  RH  024%=      5-min Rain = 0
KSW1 032159Z 15010KT 36/12 A30 RMK A01 T03590123  RH  024%=      5-min Rain = 0
KSW1 032200Z 14005KT 36/12 A30 RMK A01 T03580119  RH  024%=      5-min Rain = 0
KSW1 032201Z 16005KT 36/12 A30 RMK A01 T03550122  RH  025%=      5-min Rain = 0
KSW1 032202Z 13008KT 36/13 A30 RMK A01 T03550125  RH  025%=      5-min Rain = 0
KSW1 032203Z 13009G16KT 36/13 A30 RMK A01 T03570127  RH  025%=      5-min Rain = 0
KSW1 032204Z 14011KT 36/13 A30 RMK A01 T03600126  RH  025%=      5-min Rain = 0
KSW1 032205Z 13008KT 36/12 A30 RMK A01 T03630123  RH  024%=      5-min Rain = 0
KSW1 032206Z 11004KT 36/12 A30 RMK A01 T03590122  RH  024%=      5-min Rain = 0
KSW1 032207Z 09002KT 36/12 A30 RMK A01 T03580122  RH  024%=      5-min Rain = 0
KSW1 032208Z 12003KT 36/12 A30 RMK A01 T03570123  RH  024%=      5-min Rain = 0
KSW1 032209Z 13004G10KT 36/13 A30 RMK A01 T03550127  RH  025%=      5-min Rain = 0
KSW1 032210Z 12011KT 36/13 A30 RMK A01 T03550127  RH  025%=      5-min Rain = 0
KSW1 032211Z 12010KT 36/13 A30 RMK A01 T03590127  RH  025%=      5-min Rain = 0
KSW1 032212Z 13012KT 36/13 A30 RMK A01 T03620127  RH  025%=      5-min Rain = 0
KSW1 032213Z 11010KT 36/13 A30 RMK A01 T03640126  RH  024%=      5-min Rain = 0
KSW1 032214Z 10009KT 36/13 A30 RMK A01 T03630125  RH  024%=      5-min Rain = 0
KSW1 032215Z 11009KT 36/13 A30 RMK A01 T03610125  RH  024%=      5-min Rain = 0
KSW1 032216Z 12007KT 36/13 A30 RMK A01 T03600125  RH  024%=      5-min Rain = 0
KSW1 032217Z 14009KT 36/13 A30 RMK A01 T03610126  RH  024%=      5-min Rain = 0
KSW1 032218Z 14008KT 36/13 A30 RMK A01 T03600125  RH  024%=      5-min Rain = 0
KSW1 032219Z 12013KT 36/13 A30 RMK A01 T03580125  RH  025%=      5-min Rain = 0
KSW1 032220Z 12009KT 36/13 A30 RMK A01 T03600125  RH  024%=      5-min Rain = 0
KSW1 032221Z 12009KT 36/13 A30 RMK A01 T03640127  RH  024%=      5-min Rain = 0
KSW1 032222Z 11007KT 37/12 A30 RMK A01 T03660124  RH  023%=      5-min Rain = 0
KSW1 032223Z 14008KT 36/12 A30 RMK A01 T03640124  RH  024%=      5-min Rain = 0
KSW1 032224Z 15009KT 36/13 A30 RMK A01 T03620126  RH  024%=      5-min Rain = 0
KSW1 032225Z 16010G17KT 36/13 A30 RMK A01 T03610127  RH  025%=      5-min Rain = 0
KSW1 032226Z 15013KT 36/13 A30 RMK A01 T03610125  RH  024%=      5-min Rain = 0
KSW1 032227Z 16011KT 36/12 A30 RMK A01 T03600123  RH  024%=      5-min Rain = 0
KSW1 032228Z 15010KT 36/12 A30 RMK A01 T03560124  RH  025%=      5-min Rain = 0
KSW1 032229Z 13011KT 36/12 A30 RMK A01 T03570123  RH  024%=      5-min Rain = 0
KSW1 032230Z 13011KT 36/12 A30 RMK A01 T03580121  RH  024%=      5-min Rain = 0
KSW1 032231Z 12011KT 36/12 A30 RMK A01 T03570120  RH  024%=      5-min Rain = 0
KSW1 032232Z 14009KT 36/12 A30 RMK A01 T03550120  RH  024%=      5-min Rain = 0
KSW1 032233Z 15009KT 35/12 A30 RMK A01 T03530121  RH  025%=      5-min Rain = 0
KSW1 032234Z 13008KT 35/12 A30 RMK A01 T03530121  RH  025%=      5-min Rain = 0
KSW1 032235Z 14006KT 35/12 A30 RMK A01 T03540121  RH  025%=      5-min Rain = 0
KSW1 032236Z 12007KT 36/12 A30 RMK A01 T03550121  RH  024%=      5-min Rain = 0
KSW1 032237Z 12009KT 36/12 A30 RMK A01 T03580121  RH  024%=      5-min Rain = 0
KSW1 032238Z 12007KT 36/12 A30 RMK A01 T03580119  RH  024%=      5-min Rain = 0
KSW1 032239Z 11008KT 36/12 A30 RMK A01 T03580120  RH  024%=      5-min Rain = 0
KSW1 032240Z 12006KT 36/12 A30 RMK A01 T03580119  RH  024%=      5-min Rain = 0
KSW1 032241Z 10003KT 36/12 A30 RMK A01 T03570118  RH  024%=      5-min Rain = 0
KSW1 032242Z 10003KT 36/12 A30 RMK A01 T03560118  RH  024%=      5-min Rain = 0
KSW1 032243Z 11005KT 36/12 A30 RMK A01 T03560117  RH  024%=      5-min Rain = 0
KSW1 032244Z 13005KT 36/12 A30 RMK A01 T03550117  RH  024%=      5-min Rain = 0
KSW1 032245Z 12007KT 35/12 A30 RMK A01 T03540118  RH  024%=      5-min Rain = 0
KSW1 032246Z 11007KT 35/12 A30 RMK A01 T03540115  RH  024%=      5-min Rain = 0
KSW1 032247Z 11005KT 36/11 A30 RMK A01 T03550114  RH  023%=      5-min Rain = 0
KSW1 032248Z 12009KT 36/12 A30 RMK A01 T03550115  RH  023%=      5-min Rain = 0
KSW1 032249Z 11011KT 36/12 A30 RMK A01 T03590116  RH  023%=      5-min Rain = 0
KSW1 032250Z 12012KT 36/11 A30 RMK A01 T03600112  RH  022%=      5-min Rain = 0
KSW1 032251Z 11012KT 36/11 A30 RMK A01 T03590111  RH  022%=      5-min Rain = 0
KSW1 032252Z 10010KT 36/11 A30 RMK A01 T03580109  RH  022%=      5-min Rain = 0
KSW1 032253Z 11008KT 36/11 A30 RMK A01 T03550109  RH  023%=      5-min Rain = 0
KSW1 032254Z 11004KT 35/11 A30 RMK A01 T03540108  RH  023%=      5-min Rain = 0
KSW1 032255Z 10003KT 35/11 A30 RMK A01 T03520109  RH  023%=      5-min Rain = 0
KSW1 032256Z 15005KT 35/11 A30 RMK A01 T03520111  RH  023%=      5-min Rain = 0
KSW1 032257Z 14009KT 35/11 A30 RMK A01 T03530114  RH  024%=      5-min Rain = 0
KSW1 032258Z 12008KT 36/11 A30 RMK A01 T03550108  RH  022%=      5-min Rain = 0
KSW1 032259Z 13005KT 35/11 A30 RMK A01 T03540107  RH  022%=      5-min Rain = 0
KSW1 032300Z 14005KT 35/11 A30 RMK A01 T03540108  RH  023%=      5-min Rain = 0
KSW1 032301Z 16007KT 35/11 A30 RMK A01 T03540111  RH  023%=      5-min Rain = 0
KSW1 032302Z 17007KT 36/11 A2999 RMK A01 T03550111  RH  023%=      5-min Rain = 0
KSW1 032303Z 16007KT 36/11 A2999 RMK A01 T03560110  RH  023%=      5-min Rain = 0
KSW1 032304Z 13010KT 36/11 A2999 RMK A01 T03570110  RH  022%=      5-min Rain = 0
KSW1 032305Z 13009KT 36/11 A2999 RMK A01 T03590110  RH  022%=      5-min Rain = 0
KSW1 032306Z 13010KT 36/11 A2999 RMK A01 T03600112  RH  022%=      5-min Rain = 0
KSW1 032307Z 13010KT 36/11 A2999 RMK A01 T03600109  RH  022%=      5-min Rain = 0
KSW1 032308Z 14006KT 36/11 A2999 RMK A01 T03590111  RH  022%=      5-min Rain = 0
KSW1 032309Z 15007KT 36/12 A2999 RMK A01 T03580115  RH  023%=      5-min Rain = 0
KSW1 032310Z 11009KT 36/11 A2999 RMK A01 T03570113  RH  023%=      5-min Rain = 0
KSW1 032311Z 11010KT 36/11 A2999 RMK A01 T03560109  RH  022%=      5-min Rain = 0
KSW1 032312Z 12008KT 36/11 A2999 RMK A01 T03580110  RH  022%=      5-min Rain = 0
KSW1 032313Z 12006KT 36/11 A2999 RMK A01 T03590111  RH  022%=      5-min Rain = 0
KSW1 032314Z 13006KT 36/12 A2999 RMK A01 T03600115  RH  023%=      5-min Rain = 0
KSW1 032315Z 14006KT 36/11 A2999 RMK A01 T03610113  RH  022%=      5-min Rain = 0
KSW1 032316Z 13008KT 36/11 A2999 RMK A01 T03610106  RH  021%=      5-min Rain = 0
KSW1 032317Z 13009KT 36/11 A2999 RMK A01 T03590105  RH  021%=      5-min Rain = 0
KSW1 032318Z 13008KT 36/11 A2999 RMK A01 T03600107  RH  022%=      5-min Rain = 0
KSW1 032319Z 13007KT 36/11 A2999 RMK A01 T03600110  RH  022%=      5-min Rain = 0
KSW1 032320Z 14004KT 36/11 A2999 RMK A01 T03600111  RH  022%=      5-min Rain = 0
KSW1 032321Z 14007KT 36/11 A2999 RMK A01 T03620109  RH  022%=      5-min Rain = 0
KSW1 032322Z 12011KT 36/10 A2999 RMK A01 T03620104  RH  021%=      5-min Rain = 0
KSW1 032323Z 13010KT 36/11 A2999 RMK A01 T03610105  RH  021%=      5-min Rain = 0
KSW1 032324Z 11010KT 36/11 A2999 RMK A01 T03610105  RH  021%=      5-min Rain = 0
KSW1 032325Z 10010KT 36/10 A2999 RMK A01 T03600104  RH  021%=      5-min Rain = 0
KSW1 032326Z 10010KT 36/10 A2999 RMK A01 T03590102  RH  021%=      5-min Rain = 0
KSW1 032327Z 10010KT 36/10 A2999 RMK A01 T03560100  RH  021%=      5-min Rain = 0
KSW1 032328Z 12009KT 36/10 A2999 RMK A01 T03550100  RH  021%=      5-min Rain = 0
KSW1 032329Z 14007KT 36/10 A2999 RMK A01 T03560103  RH  022%=      5-min Rain = 0
KSW1 032330Z 16011G16KT 36/10 A2999 RMK A01 T03570102  RH  021%=      5-min Rain = 0
KSW1 032331Z 16013KT 36/10 A2999 RMK A01 T03570101  RH  021%=      5-min Rain = 0
KSW1 032332Z 17011KT 36/10 A2999 RMK A01 T03560098  RH  021%=      5-min Rain = 0
KSW1 032333Z 16009KT 35/10 A2999 RMK A01 T03540100  RH  021%=      5-min Rain = 0
KSW1 032334Z 16010KT 35/10 A2999 RMK A01 T03530102  RH  022%=      5-min Rain = 0
KSW1 032335Z 15009KT 35/10 A2999 RMK A01 T03530103  RH  022%=      5-min Rain = 0
KSW1 032336Z 14009KT 35/10 A2999 RMK A01 T03530104  RH  022%=      5-min Rain = 0
KSW1 032337Z 12009KT 35/10 A2999 RMK A01 T03540104  RH  022%=      5-min Rain = 0
KSW1 032338Z 11009KT 35/10 A2999 RMK A01 T03540101  RH  022%=      5-min Rain = 0
KSW1 032339Z 10008KT 35/10 A2999 RMK A01 T03540102  RH  022%=      5-min Rain = 0
KSW1 032340Z 10007KT 35/10 A2999 RMK A01 T03530102  RH  022%=      5-min Rain = 0
KSW1 032341Z 11007KT 36/10 A2999 RMK A01 T03550103  RH  022%=      5-min Rain = 0
KSW1 032342Z 15007KT 36/10 A2999 RMK A01 T03550102  RH  021%=      5-min Rain = 0
KSW1 032343Z 14010KT 36/10 A2999 RMK A01 T03560104  RH  022%=      5-min Rain = 0
KSW1 032344Z 14008KT 36/10 A2999 RMK A01 T03570100  RH  021%=      5-min Rain = 0
KSW1 032345Z 14009KT 36/10 A2999 RMK A01 T03560100  RH  021%=      5-min Rain = 0
KSW1 032346Z 15009KT 36/10 A2999 RMK A01 T03560102  RH  021%=      5-min Rain = 0
KSW1 032347Z 13008KT 36/10 A2999 RMK A01 T03560097  RH  021%=      5-min Rain = 0
KSW1 032348Z 13008KT 36/10 A2999 RMK A01 T03560097  RH  021%=      5-min Rain = 0
KSW1 032349Z 14007KT 36/10 A2999 RMK A01 T03560099  RH  021%=      5-min Rain = 0
KSW1 032350Z 16006KT 36/10 A2999 RMK A01 T03560101  RH  021%=      5-min Rain = 0
KSW1 032351Z 15006KT 36/10 A2999 RMK A01 T03560097  RH  021%=      5-min Rain = 0
KSW1 032352Z 15005KT 35/10 A2999 RMK A01 T03540096  RH  021%=      5-min Rain = 0
KSW1 032353Z 15007KT 35/10 A2999 RMK A01 T03530099  RH  021%=      5-min Rain = 0
KSW1 032354Z 12007KT 35/10 A2999 RMK A01 T03530098  RH  021%=      5-min Rain = 0
KSW1 032355Z 14008KT 35/10 A2999 RMK A01 T03530096  RH  021%=      5-min Rain = 0
KSW1 032356Z 15006KT 35/09 A2999 RMK A01 T03530094  RH  021%=      5-min Rain = 0
KSW1 032357Z 16008KT 35/09 A2999 RMK A01 T03530092  RH  020%=      5-min Rain = 0
KSW1 032358Z 16009KT 36/09 A2999 RMK A01 T03550090  RH  020%=      5-min Rain = 0
KSW1 032359Z 15008KT 36/09 A2999 RMK A01 T03550087  RH  020%=      5-min Rain = 0
KSW1 040000Z 16010KT 36/09 A2999 RMK A01 T03550086  RH  019%=      5-min Rain = 0
KSW1 040001Z 17009KT 35/09 A2999 RMK A01 T03540085  RH  019%=      5-min Rain = 0
KSW1 040002Z 16009KT 35/08 A2999 RMK A01 T03530084  RH  019%=      5-min Rain = 0
KSW1 040003Z 17010KT 35/08 A2999 RMK A01 T03530083  RH  019%=      5-min Rain = 0
KSW1 040004Z 17007KT 35/08 A2999 RMK A01 T03520082  RH  019%=      5-min Rain = 0
KSW1 040005Z 17007KT 35/08 A2999 RMK A01 T03520080  RH  019%=      5-min Rain = 0
KSW1 040006Z 16006KT 35/09 A2999 RMK A01 T03520085  RH  019%=      5-min Rain = 0
KSW1 040007Z 15009KT 35/09 A2999 RMK A01 T03530092  RH  020%=      5-min Rain = 0
KSW1 040008Z 13008KT 35/10 A2999 RMK A01 T03530095  RH  021%=      5-min Rain = 0
KSW1 040009Z 14011KT 36/10 A2999 RMK A01 T03550097  RH  021%=      5-min Rain = 0
KSW1 040010Z 14010KT 36/10 A2999 RMK A01 T03550095  RH  020%=      5-min Rain = 0
KSW1 040011Z 12009KT 35/09 A2999 RMK A01 T03540091  RH  020%=      5-min Rain = 0
KSW1 040012Z 12007KT 35/09 A2999 RMK A01 T03530091  RH  020%=      5-min Rain = 0
KSW1 040013Z 12010KT 35/09 A2999 RMK A01 T03530091  RH  020%=      5-min Rain = 0
KSW1 040014Z 13009KT 35/09 A2999 RMK A01 T03530091  RH  020%=      5-min Rain = 0
KSW1 040015Z 13011KT 35/09 A2999 RMK A01 T03530091  RH  020%=      5-min Rain = 0
KSW1 040016Z 14009KT 35/09 A2999 RMK A01 T03530089  RH  020%=      5-min Rain = 0
KSW1 040017Z 13008KT 35/09 A2999 RMK A01 T03520090  RH  020%=      5-min Rain = 0
KSW1 040018Z 15010KT 35/09 A2999 RMK A01 T03510094  RH  021%=      5-min Rain = 0
KSW1 040019Z 13007KT 35/10 A2999 RMK A01 T03510096  RH  021%=      5-min Rain = 0
KSW1 040020Z 14005KT 35/10 A2999 RMK A01 T03520096  RH  021%=      5-min Rain = 0
KSW1 040021Z 15007KT 35/10 A2999 RMK A01 T03540098  RH  021%=      5-min Rain = 0
KSW1 040022Z 15009KT 35/10 A2999 RMK A01 T03530095  RH  021%=      5-min Rain = 0
KSW1 040023Z 14009KT 35/09 A2999 RMK A01 T03510093  RH  021%=      5-min Rain = 0
KSW1 040024Z 14011KT 35/09 A2999 RMK A01 T03510089  RH  020%=      5-min Rain = 0
KSW1 040025Z 15010KT 35/09 A2999 RMK A01 T03510088  RH  020%=      5-min Rain = 0
KSW1 040026Z 14009KT 35/09 A2999 RMK A01 T03500087  RH  020%=      5-min Rain = 0
KSW1 040027Z 13007KT 35/08 A2999 RMK A01 T03500084  RH  020%=      5-min Rain = 0
KSW1 040028Z 14008KT 35/09 A2999 RMK A01 T03500085  RH  020%=      5-min Rain = 0
KSW1 040029Z 14007KT 35/09 A2999 RMK A01 T03510085  RH  020%=      5-min Rain = 0
KSW1 040030Z 12009KT 35/09 A2999 RMK A01 T03510085  RH  020%=      5-min Rain = 0
KSW1 040031Z 12009KT 35/08 A2999 RMK A01 T03520080  RH  019%=      5-min Rain = 0
KSW1 040032Z 12008KT 35/08 A2999 RMK A01 T03520079  RH  019%=      5-min Rain = 0
KSW1 040033Z 12010KT 35/08 A2999 RMK A01 T03510080  RH  019%=      5-min Rain = 0
KSW1 040034Z 13010KT 35/08 A2999 RMK A01 T03500078  RH  019%=      5-min Rain = 0
KSW1 040035Z 13007KT 35/08 A2999 RMK A01 T03500080  RH  019%=      5-min Rain = 0
KSW1 040036Z 14008KT 35/08 A2999 RMK A01 T03500084  RH  020%=      5-min Rain = 0
KSW1 040037Z 15007KT 35/08 A2999 RMK A01 T03490082  RH  019%=      5-min Rain = 0
KSW1 040038Z 14008KT 35/08 A2999 RMK A01 T03490081  RH  019%=      5-min Rain = 0
KSW1 040039Z 13013KT 35/08 A2999 RMK A01 T03480077  RH  019%=      5-min Rain = 0
KSW1 040040Z 14011KT 35/07 A2999 RMK A01 T03480074  RH  018%=      5-min Rain = 0
KSW1 040041Z 15011KT 35/08 A2999 RMK A01 T03470075  RH  019%=      5-min Rain = 0
KSW1 040042Z 15011KT 35/08 A2999 RMK A01 T03470077  RH  019%=      5-min Rain = 0
KSW1 040043Z 15010KT 35/08 A2999 RMK A01 T03460077  RH  019%=      5-min Rain = 0
KSW1 040044Z 15009KT 35/08 A2999 RMK A01 T03460079  RH  019%=      5-min Rain = 0
KSW1 040045Z 15009KT 35/08 A2999 RMK A01 T03460078  RH  019%=      5-min Rain = 0
KSW1 040046Z 15007KT 35/08 A2999 RMK A01 T03460078  RH  019%=      5-min Rain = 0
KSW1 040047Z 16010KT 35/08 A2999 RMK A01 T03460077  RH  019%=      5-min Rain = 0
KSW1 040048Z 15010KT 35/08 A2999 RMK A01 T03450076  RH  019%=      5-min Rain = 0
KSW1 040049Z 16010KT 35/07 A2999 RMK A01 T03450073  RH  019%=      5-min Rain = 0
KSW1 040050Z 16008KT 35/07 A2999 RMK A01 T03450070  RH  018%=      5-min Rain = 0
KSW1 040051Z 15007KT 35/07 A2999 RMK A01 T03450072  RH  019%=      5-min Rain = 0
KSW1 040052Z 15008KT 35/07 A2999 RMK A01 T03450073  RH  019%=      5-min Rain = 0
KSW1 040053Z 14008KT 34/07 A2999 RMK A01 T03440072  RH  019%=      5-min Rain = 0
KSW1 040054Z 13009KT 34/07 A2999 RMK A01 T03440067  RH  018%=      5-min Rain = 0
KSW1 040055Z 12009KT 34/07 A2999 RMK A01 T03440067  RH  018%=      5-min Rain = 0
KSW1 040056Z 13009KT 35/07 A2999 RMK A01 T03450065  RH  018%=      5-min Rain = 0
KSW1 040057Z 14007KT 34/07 A2999 RMK A01 T03440067  RH  018%=      5-min Rain = 0
KSW1 040058Z 13009KT 34/06 A2999 RMK A01 T03440064  RH  018%=      5-min Rain = 0
KSW1 040059Z 14009KT 34/06 A2999 RMK A01 T03430060  RH  017%=      5-min Rain = 0
KSW1 040100Z 14008KT 34/06 A2999 RMK A01 T03430061  RH  017%=      5-min Rain = 0
KSW1 040101Z 15009KT 34/07 A2999 RMK A01 T03420065  RH  018%=      5-min Rain = 0
KSW1 040102Z 15011KT 34/06 A2999 RMK A01 T03410064  RH  018%=      5-min Rain = 0
KSW1 040103Z 14010KT 34/06 A2999 RMK A01 T03410064  RH  018%=      5-min Rain = 0
KSW1 040104Z 14009KT 34/06 A2999 RMK A01 T03400064  RH  018%=      5-min Rain = 0
KSW1 040105Z 14009KT 34/07 A30 RMK A01 T03390065  RH  018%=      5-min Rain = 0
KSW1 040106Z 13009KT 34/07 A30 RMK A01 T03390065  RH  018%=      5-min Rain = 0
KSW1 040107Z 14008KT 34/07 A30 RMK A01 T03380065  RH  018%=      5-min Rain = 0
KSW1 040108Z 14007KT 34/07 A30 RMK A01 T03370067  RH  019%=      5-min Rain = 0
KSW1 040109Z 14008KT 34/07 A30 RMK A01 T03360066  RH  019%=      5-min Rain = 0
KSW1 040110Z 14007KT 34/07 A30 RMK A01 T03360066  RH  019%=      5-min Rain = 0
KSW1 040111Z 13009KT 34/07 A30 RMK A01 T03350065  RH  019%=      5-min Rain = 0
KSW1 040112Z 13007KT 34/06 A30 RMK A01 T03350064  RH  019%=      5-min Rain = 0
KSW1 040113Z 14007KT 34/07 A30 RMK A01 T03350065  RH  019%=      5-min Rain = 0
KSW1 040114Z 14007KT 33/07 A30 RMK A01 T03340066  RH  019%=      5-min Rain = 0
KSW1 040115Z 14006KT 33/07 A30 RMK A01 T03340066  RH  019%=      5-min Rain = 0
KSW1 040116Z 13007KT 33/07 A30 RMK A01 T03330067  RH  019%=      5-min Rain = 0
KSW1 040117Z 13006KT 33/07 A30 RMK A01 T03320066  RH  019%=      5-min Rain = 0
KSW1 040118Z 13006KT 33/07 A30 RMK A01 T03310067  RH  019%=      5-min Rain = 0
KSW1 040119Z 13006KT 33/07 A30 RMK A01 T03310068  RH  020%=      5-min Rain = 0
KSW1 040120Z 13006KT 33/07 A30 RMK A01 T03300068  RH  020%=      5-min Rain = 0
KSW1 040121Z 13007KT 33/07 A30 RMK A01 T03290068  RH  020%=      5-min Rain = 0
KSW1 040122Z 13007KT 33/07 A30 RMK A01 T03290068  RH  020%=      5-min Rain = 0
KSW1 040123Z 13007KT 33/07 A30 RMK A01 T03280067  RH  020%=      5-min Rain = 0
KSW1 040124Z 13006KT 33/07 A30 RMK A01 T03270067  RH  020%=      5-min Rain = 0
KSW1 040125Z 13007KT 33/07 A30 RMK A01 T03260066  RH  020%=      5-min Rain = 0
KSW1 040126Z 13007KT 33/07 A30 RMK A01 T03260066  RH  020%=      5-min Rain = 0
KSW1 040127Z 13007KT 33/07 A30 RMK A01 T03260065  RH  020%=      5-min Rain = 0
KSW1 040128Z 14007KT 33/07 A30 RMK A01 T03250066  RH  020%=      5-min Rain = 0
KSW1 040129Z 13006KT 33/07 A30 RMK A01 T03250067  RH  020%=      5-min Rain = 0
KSW1 040130Z 14006KT 32/07 A30 RMK A01 T03240067  RH  020%=      5-min Rain = 0
KSW1 040131Z 14007KT 32/07 A30 RMK A01 T03230066  RH  020%=      5-min Rain = 0
KSW1 040132Z 14007KT 32/07 A30 RMK A01 T03230066  RH  020%=      5-min Rain = 0
KSW1 040133Z 14007KT 32/07 A30 RMK A01 T03220066  RH  020%=      5-min Rain = 0
KSW1 040134Z 13006KT 32/07 A30 RMK A01 T03210066  RH  020%=      5-min Rain = 0
KSW1 040135Z 13006KT 32/07 A30 RMK A01 T03200066  RH  021%=      5-min Rain = 0
KSW1 040136Z 13006KT 32/07 A30 RMK A01 T03190066  RH  021%=      5-min Rain = 0
KSW1 040137Z 13006KT 32/07 A30 RMK A01 T03180066  RH  021%=      5-min Rain = 0
KSW1 040138Z 13006KT 32/07 A30 RMK A01 T03170067  RH  021%=      5-min Rain = 0
KSW1 040139Z 13006KT 32/07 A30 RMK A01 T03160067  RH  021%=      5-min Rain = 0
KSW1 040140Z 13006KT 32/07 A30 RMK A01 T03150068  RH  021%=      5-min Rain = 0
KSW1 040141Z 13006KT 31/07 A30 RMK A01 T03140068  RH  022%=      5-min Rain = 0
KSW1 040142Z 13006KT 31/07 A30 RMK A01 T03130069  RH  022%=      5-min Rain = 0
KSW1 040143Z 13006KT 31/07 A30 RMK A01 T03110069  RH  022%=      5-min Rain = 0
KSW1 040144Z 13006KT 31/07 A30 RMK A01 T03100069  RH  022%=      5-min Rain = 0
KSW1 040145Z 13007KT 31/07 A30 RMK A01 T03100069  RH  022%=      5-min Rain = 0
KSW1 040146Z 13007KT 31/07 A30 RMK A01 T03090069  RH  022%=      5-min Rain = 0
KSW1 040147Z 13007KT 31/07 A30 RMK A01 T03080069  RH  022%=      5-min Rain = 0
KSW1 040148Z 13007KT 31/07 A30 RMK A01 T03070070  RH  023%=      5-min Rain = 0
KSW1 040149Z 13006KT 31/07 A30 RMK A01 T03060069  RH  023%=      5-min Rain = 0
KSW1 040150Z 13006KT 31/07 A30 RMK A01 T03060070  RH  023%=      5-min Rain = 0
KSW1 040151Z 13006KT 31/07 A30 RMK A01 T03050069  RH  023%=      5-min Rain = 0
KSW1 040152Z 13006KT 31/07 A30 RMK A01 T03050069  RH  023%=      5-min Rain = 0
KSW1 040153Z 13006KT 30/07 A30 RMK A01 T03040070  RH  023%=      5-min Rain = 0
KSW1 040154Z 12006KT 30/07 A30 RMK A01 T03030070  RH  023%=      5-min Rain = 0
KSW1 040155Z 12006KT 30/07 A30 RMK A01 T03020070  RH  023%=      5-min Rain = 0
KSW1 040156Z 13006KT 30/07 A30 RMK A01 T03010070  RH  024%=      5-min Rain = 0
KSW1 040157Z 13006KT 30/07 A30 RMK A01 T03000070  RH  024%=      5-min Rain = 0
KSW1 040158Z 12006KT 30/07 A30 RMK A01 T02990070  RH  024%=      5-min Rain = 0
KSW1 040159Z 12006KT 30/07 A30 RMK A01 T02980070  RH  024%=      5-min Rain = 0
KSW1 040200Z 12006KT 30/07 A3001 RMK A01 T02970070  RH  024%=      5-min Rain = 0
KSW1 040201Z 12006KT 30/07 A3001 RMK A01 T02960070  RH  024%=      5-min Rain = 0
KSW1 040202Z 12006KT 30/07 A3001 RMK A01 T02950070  RH  024%=      5-min Rain = 0
KSW1 040203Z 13005KT 29/07 A3001 RMK A01 T02940071  RH  024%=      5-min Rain = 0
KSW1 040204Z 13005KT 29/07 A3001 RMK A01 T02930071  RH  025%=      5-min Rain = 0
KSW1 040205Z 12006KT 29/07 A3001 RMK A01 T02920071  RH  025%=      5-min Rain = 0
KSW1 040206Z 12006KT 29/07 A3001 RMK A01 T02920071  RH  025%=      5-min Rain = 0
KSW1 040207Z 12006KT 29/07 A3001 RMK A01 T02920071  RH  025%=      5-min Rain = 0
KSW1 040208Z 12006KT 29/07 A3001 RMK A01 T02910071  RH  025%=      5-min Rain = 0
KSW1 040209Z 12006KT 29/07 A3001 RMK A01 T02910071  RH  025%=      5-min Rain = 0
KSW1 040210Z 12006KT 29/07 A3001 RMK A01 T02900071  RH  025%=      5-min Rain = 0
KSW1 040211Z 12006KT 29/07 A3001 RMK A01 T02900071  RH  025%=      5-min Rain = 0
KSW1 040212Z 12006KT 29/07 A3001 RMK A01 T02900071  RH  025%=      5-min Rain = 0
KSW1 040213Z 12006KT 29/07 A3001 RMK A01 T02890071  RH  025%=      5-min Rain = 0
KSW1 040214Z 12006KT 29/07 A3001 RMK A01 T02890071  RH  025%=      5-min Rain = 0
KSW1 040215Z 12006KT 29/07 A3001 RMK A01 T02890071  RH  025%=      5-min Rain = 0
KSW1 040216Z 12007KT 29/07 A3001 RMK A01 T02880072  RH  026%=      5-min Rain = 0
KSW1 040217Z 12006KT 29/07 A3001 RMK A01 T02870071  RH  026%=      5-min Rain = 0
KSW1 040218Z 12007KT 29/07 A3001 RMK A01 T02870072  RH  026%=      5-min Rain = 0
KSW1 040219Z 12007KT 29/07 A3001 RMK A01 T02870071  RH  026%=      5-min Rain = 0
KSW1 040220Z 12007KT 29/07 A3001 RMK A01 T02870072  RH  026%=      5-min Rain = 0
KSW1 040221Z 12007KT 29/07 A3001 RMK A01 T02860072  RH  026%=      5-min Rain = 0
KSW1 040222Z 12006KT 29/07 A3001 RMK A01 T02860072  RH  026%=      5-min Rain = 0
KSW1 040223Z 12007KT 29/07 A3001 RMK A01 T02850072  RH  026%=      5-min Rain = 0
KSW1 040224Z 12006KT 28/07 A3001 RMK A01 T02840073  RH  026%=      5-min Rain = 0
KSW1 040225Z 12006KT 28/07 A3001 RMK A01 T02840073  RH  027%=      5-min Rain = 0
KSW1 040226Z 12007KT 28/07 A3001 RMK A01 T02830073  RH  027%=      5-min Rain = 0
KSW1 040227Z 12007KT 28/07 A3001 RMK A01 T02820073  RH  027%=      5-min Rain = 0
KSW1 040228Z 12007KT 28/07 A3001 RMK A01 T02820073  RH  027%=      5-min Rain = 0
KSW1 040229Z 12007KT 28/07 A3001 RMK A01 T02820074  RH  027%=      5-min Rain = 0
KSW1 040230Z 12007KT 28/07 A3001 RMK A01 T02810074  RH  027%=      5-min Rain = 0
KSW1 040231Z 12007KT 28/07 A3001 RMK A01 T02800074  RH  027%=      5-min Rain = 0
KSW1 040232Z 12007KT 28/07 A3001 RMK A01 T02800074  RH  027%=      5-min Rain = 0
KSW1 040233Z 12007KT 28/08 A3001 RMK A01 T02800075  RH  027%=      5-min Rain = 0
KSW1 040234Z 12007KT 28/08 A3001 RMK A01 T02800075  RH  027%=      5-min Rain = 0
KSW1 040235Z 12006KT 28/08 A3002 RMK A01 T02800076  RH  028%=      5-min Rain = 0
KSW1 040236Z 12007KT 28/08 A3002 RMK A01 T02790076  RH  028%=      5-min Rain = 0
KSW1 040237Z 12007KT 28/08 A3001 RMK A01 T02790075  RH  028%=      5-min Rain = 0
KSW1 040238Z 12007KT 28/08 A3002 RMK A01 T02790076  RH  028%=      5-min Rain = 0
KSW1 040239Z 12007KT 28/08 A3002 RMK A01 T02790076  RH  028%=      5-min Rain = 0
KSW1 040240Z 11007KT 28/08 A3002 RMK A01 T02790077  RH  028%=      5-min Rain = 0
KSW1 040241Z 11008KT 28/08 A3002 RMK A01 T02790077  RH  028%=      5-min Rain = 0
KSW1 040242Z 10009KT 28/08 A3002 RMK A01 T02790078  RH  028%=      5-min Rain = 0
KSW1 040243Z 10009KT 28/08 A3002 RMK A01 T02780078  RH  028%=      5-min Rain = 0
KSW1 040244Z 10008KT 28/08 A3002 RMK A01 T02780078  RH  028%=      5-min Rain = 0
KSW1 040245Z 09007KT 28/08 A3002 RMK A01 T02790078  RH  028%=      5-min Rain = 0
KSW1 040246Z 10007KT 28/08 A3002 RMK A01 T02790077  RH  028%=      5-min Rain = 0
KSW1 040247Z 10007KT 28/08 A3002 RMK A01 T02790077  RH  028%=      5-min Rain = 0
KSW1 040248Z 11007KT 28/08 A3002 RMK A01 T02790076  RH  028%=      5-min Rain = 0
KSW1 040249Z 11007KT 28/08 A3002 RMK A01 T02790075  RH  028%=      5-min Rain = 0
KSW1 040250Z 11007KT 28/08 A3002 RMK A01 T02790075  RH  028%=      5-min Rain = 0
KSW1 040251Z 11008KT 28/08 A3002 RMK A01 T02790075  RH  028%=      5-min Rain = 0
KSW1 040252Z 11007KT 28/08 A3002 RMK A01 T02790075  RH  028%=      5-min Rain = 0
KSW1 040253Z 11007KT 28/08 A3002 RMK A01 T02780075  RH  028%=      5-min Rain = 0
KSW1 040254Z 11007KT 28/08 A3002 RMK A01 T02770075  RH  028%=      5-min Rain = 0
KSW1 040255Z 11008KT 28/08 A3002 RMK A01 T02760075  RH  028%=      5-min Rain = 0
KSW1 040256Z 11007KT 28/07 A3002 RMK A01 T02760074  RH  028%=      5-min Rain = 0
KSW1 040257Z 11007KT 28/07 A3002 RMK A01 T02750074  RH  028%=      5-min Rain = 0
KSW1 040258Z 11007KT 28/07 A3002 RMK A01 T02760074  RH  028%=      5-min Rain = 0
KSW1 040259Z 11007KT 28/07 A3002 RMK A01 T02750074  RH  028%=      5-min Rain = 0
KSW1 040300Z 11007KT 28/07 A3002 RMK A01 T02750074  RH  028%=      5-min Rain = 0
KSW1 040301Z 11007KT 28/07 A3002 RMK A01 T02750074  RH  028%=      5-min Rain = 0
KSW1 040302Z 11007KT 28/07 A3002 RMK A01 T02750074  RH  028%=      5-min Rain = 0
KSW1 040303Z 11007KT 28/07 A3002 RMK A01 T02750074  RH  028%=      5-min Rain = 0
KSW1 040304Z 11007KT 27/07 A3003 RMK A01 T02740074  RH  028%=      5-min Rain = 0
KSW1 040305Z 11007KT 27/07 A3003 RMK A01 T02740074  RH  028%=      5-min Rain = 0
KSW1 040306Z 11007KT 27/07 A3003 RMK A01 T02740074  RH  028%=      5-min Rain = 0
KSW1 040307Z 11006KT 27/07 A3003 RMK A01 T02730074  RH  028%=      5-min Rain = 0
KSW1 040308Z 11006KT 27/08 A3003 RMK A01 T02720075  RH  029%=      5-min Rain = 0
KSW1 040309Z 11006KT 27/08 A3003 RMK A01 T02730075  RH  029%=      5-min Rain = 0
KSW1 040310Z 10006KT 27/07 A3003 RMK A01 T02720074  RH  029%=      5-min Rain = 0
KSW1 040311Z 10006KT 27/08 A3003 RMK A01 T02720075  RH  029%=      5-min Rain = 0
KSW1 040312Z 10007KT 27/08 A3003 RMK A01 T02720075  RH  029%=      5-min Rain = 0
KSW1 040313Z 11007KT 27/08 A3003 RMK A01 T02720076  RH  029%=      5-min Rain = 0
KSW1 040314Z 11007KT 27/08 A3003 RMK A01 T02730076  RH  029%=      5-min Rain = 0
KSW1 040315Z 11007KT 27/08 A3003 RMK A01 T02730076  RH  029%=      5-min Rain = 0
KSW1 040316Z 11007KT 27/08 A3003 RMK A01 T02730076  RH  029%=      5-min Rain = 0
KSW1 040317Z 11006KT 27/08 A3003 RMK A01 T02730077  RH  029%=      5-min Rain = 0
KSW1 040318Z 11006KT 27/08 A3003 RMK A01 T02730077  RH  029%=      5-min Rain = 0
KSW1 040319Z 11006KT 27/08 A3003 RMK A01 T02720077  RH  029%=      5-min Rain = 0
KSW1 040320Z 11006KT 27/08 A3003 RMK A01 T02720077  RH  029%=      5-min Rain = 0
KSW1 040321Z 11006KT 27/08 A3003 RMK A01 T02710077  RH  029%=      5-min Rain = 0
KSW1 040322Z 10006KT 27/08 A3004 RMK A01 T02710078  RH  029%=      5-min Rain = 0
KSW1 040323Z 10006KT 27/08 A3004 RMK A01 T02700078  RH  030%=      5-min Rain = 0
KSW1 040324Z 10006KT 27/08 A3004 RMK A01 T02680078  RH  030%=      5-min Rain = 0
KSW1 040325Z 10006KT 27/08 A3004 RMK A01 T02680078  RH  030%=      5-min Rain = 0
KSW1 040326Z 10006KT 27/08 A3004 RMK A01 T02690078  RH  030%=      5-min Rain = 0
KSW1 040327Z 10006KT 27/08 A3004 RMK A01 T02690079  RH  030%=      5-min Rain = 0
KSW1 040328Z 10006KT 27/08 A3004 RMK A01 T02690079  RH  030%=      5-min Rain = 0
KSW1 040329Z 10006KT 27/08 A3004 RMK A01 T02700080  RH  030%=      5-min Rain = 0
KSW1 040330Z 10006KT 27/08 A3004 RMK A01 T02700080  RH  030%=      5-min Rain = 0
KSW1 040331Z 10006KT 27/08 A3004 RMK A01 T02700081  RH  030%=      5-min Rain = 0
KSW1 040332Z 10006KT 27/08 A3004 RMK A01 T02700081  RH  030%=      5-min Rain = 0
KSW1 040333Z 10007KT 27/08 A3004 RMK A01 T02700082  RH  030%=      5-min Rain = 0
KSW1 040334Z 10006KT 27/08 A3004 RMK A01 T02700082  RH  031%=      5-min Rain = 0
KSW1 040335Z 10006KT 27/08 A3004 RMK A01 T02700083  RH  031%=      5-min Rain = 0
KSW1 040336Z 10006KT 27/08 A3004 RMK A01 T02700084  RH  031%=      5-min Rain = 0
KSW1 040337Z 10007KT 27/08 A3004 RMK A01 T02690084  RH  031%=      5-min Rain = 0
KSW1 040338Z 10006KT 27/09 A3004 RMK A01 T02690085  RH  031%=      5-min Rain = 0
KSW1 040339Z 10006KT 27/09 A3004 RMK A01 T02690086  RH  031%=      5-min Rain = 0
KSW1 040340Z 10006KT 27/09 A3004 RMK A01 T02680086  RH  032%=      5-min Rain = 0
KSW1 040341Z 10006KT 27/09 A3005 RMK A01 T02680087  RH  032%=      5-min Rain = 0
KSW1 040342Z 10007KT 27/09 A3005 RMK A01 T02670088  RH  032%=      5-min Rain = 0
KSW1 040343Z 10007KT 27/09 A3005 RMK A01 T02660088  RH  032%=      5-min Rain = 0
KSW1 040344Z 10007KT 27/09 A3005 RMK A01 T02660089  RH  033%=      5-min Rain = 0
KSW1 040345Z 10007KT 27/09 A3005 RMK A01 T02660089  RH  033%=      5-min Rain = 0
KSW1 040346Z 10007KT 27/09 A3005 RMK A01 T02670091  RH  033%=      5-min Rain = 0
KSW1 040347Z 10007KT 27/09 A3005 RMK A01 T02680091  RH  033%=      5-min Rain = 0
KSW1 040348Z 10007KT 27/09 A3005 RMK A01 T02680092  RH  033%=      5-min Rain = 0
KSW1 040349Z 10008KT 27/09 A3005 RMK A01 T02690092  RH  033%=      5-min Rain = 0
KSW1 040350Z 10008KT 27/09 A3005 RMK A01 T02700093  RH  033%=      5-min Rain = 0
KSW1 040351Z 10008KT 27/09 A3005 RMK A01 T02700093  RH  033%=      5-min Rain = 0
KSW1 040352Z 10008KT 27/09 A3005 RMK A01 T02700093  RH  033%=      5-min Rain = 0
KSW1 040353Z 10008KT 27/09 A3005 RMK A01 T02700094  RH  033%=      5-min Rain = 0
KSW1 040354Z 10008KT 27/09 A3005 RMK A01 T02700094  RH  033%=      5-min Rain = 0
KSW1 040355Z 10008KT 27/09 A3005 RMK A01 T02710094  RH  033%=      5-min Rain = 0
KSW1 040356Z 10007KT 27/09 A3005 RMK A01 T02700094  RH  033%=      5-min Rain = 0
KSW1 040357Z 10007KT 27/10 A3005 RMK A01 T02690095  RH  033%=      5-min Rain = 0
KSW1 040358Z 10007KT 27/09 A3005 RMK A01 T02680094  RH  034%=      5-min Rain = 0
KSW1 040359Z 10007KT 27/10 A3005 RMK A01 T02670095  RH  034%=      5-min Rain = 0
KSW1 040400Z 10007KT 27/10 A3005 RMK A01 T02660095  RH  034%=      5-min Rain = 0
KSW1 040401Z 10007KT 27/10 A3005 RMK A01 T02660096  RH  034%=      5-min Rain = 0
KSW1 040402Z 11007KT 27/10 A3005 RMK A01 T02650096  RH  035%=      5-min Rain = 0
KSW1 040403Z 11006KT 26/10 A3005 RMK A01 T02640097  RH  035%=      5-min Rain = 0
KSW1 040404Z 11006KT 26/10 A3005 RMK A01 T02630097  RH  035%=      5-min Rain = 0
KSW1 040405Z 11006KT 26/10 A3005 RMK A01 T02630098  RH  035%=      5-min Rain = 0
KSW1 040406Z 10007KT 26/10 A3005 RMK A01 T02630098  RH  035%=      5-min Rain = 0
KSW1 040407Z 10007KT 26/10 A3005 RMK A01 T02630098  RH  035%=      5-min Rain = 0
KSW1 040408Z 10007KT 26/10 A3005 RMK A01 T02630099  RH  036%=      5-min Rain = 0
KSW1 040409Z 10007KT 26/10 A3005 RMK A01 T02630099  RH  036%=      5-min Rain = 0
KSW1 040410Z 10008KT 26/10 A3005 RMK A01 T02640100  RH  036%=      5-min Rain = 0
KSW1 040411Z 11007KT 27/10 A3005 RMK A01 T02660101  RH  035%=      5-min Rain = 0
KSW1 040412Z 10007KT 27/10 A3005 RMK A01 T02670101  RH  035%=      5-min Rain = 0
KSW1 040413Z 11008KT 27/10 A3005 RMK A01 T02680101  RH  035%=      5-min Rain = 0
KSW1 040414Z 11007KT 27/10 A3005 RMK A01 T02680101  RH  035%=      5-min Rain = 0
KSW1 040415Z 11007KT 27/10 A3005 RMK A01 T02680101  RH  035%=      5-min Rain = 0
KSW1 040416Z 11007KT 27/10 A3005 RMK A01 T02680102  RH  035%=      5-min Rain = 0
KSW1 040417Z 10007KT 27/10 A3005 RMK A01 T02670101  RH  035%=      5-min Rain = 0
KSW1 040418Z 11007KT 27/10 A3005 RMK A01 T02660102  RH  036%=      5-min Rain = 0
KSW1 040419Z 11007KT 27/10 A3005 RMK A01 T02650102  RH  036%=      5-min Rain = 0
KSW1 040420Z 11007KT 27/10 A3005 RMK A01 T02650102  RH  036%=      5-min Rain = 0
KSW1 040421Z 11007KT 26/10 A3005 RMK A01 T02640102  RH  036%=      5-min Rain = 0
KSW1 040422Z 11008KT 26/10 A3005 RMK A01 T02640101  RH  036%=      5-min Rain = 0
KSW1 040423Z 10008KT 26/10 A3005 RMK A01 T02640102  RH  036%=      5-min Rain = 0
KSW1 040424Z 10008KT 26/10 A3005 RMK A01 T02640101  RH  036%=      5-min Rain = 0
KSW1 040425Z 10008KT 26/10 A3005 RMK A01 T02640101  RH  036%=      5-min Rain = 0
KSW1 040426Z 10008KT 27/10 A3005 RMK A01 T02650101  RH  036%=      5-min Rain = 0
KSW1 040427Z 10008KT 27/10 A3005 RMK A01 T02650101  RH  036%=      5-min Rain = 0
KSW1 040428Z 10007KT 27/10 A3005 RMK A01 T02660101  RH  036%=      5-min Rain = 0
KSW1 040429Z 10008KT 27/10 A3005 RMK A01 T02670101  RH  035%=      5-min Rain = 0
KSW1 040430Z 10008KT 27/10 A3005 RMK A01 T02680102  RH  035%=      5-min Rain = 0
KSW1 040431Z 10008KT 27/10 A3005 RMK A01 T02680102  RH  035%=      5-min Rain = 0
KSW1 040432Z 10008KT 27/10 A3005 RMK A01 T02690102  RH  035%=      5-min Rain = 0
KSW1 040433Z 10008KT 27/10 A3005 RMK A01 T02700102  RH  035%=      5-min Rain = 0
KSW1 040434Z 10008KT 27/10 A3005 RMK A01 T02710102  RH  035%=      5-min Rain = 0
KSW1 040435Z 10008KT 27/10 A3005 RMK A01 T02710103  RH  035%=      5-min Rain = 0
KSW1 040436Z 10008KT 27/10 A3005 RMK A01 T02710103  RH  035%=      5-min Rain = 0
KSW1 040437Z 10008KT 27/10 A3005 RMK A01 T02710103  RH  035%=      5-min Rain = 0
KSW1 040438Z 10008KT 27/10 A3005 RMK A01 T02710103  RH  035%=      5-min Rain = 0
KSW1 040439Z 09008KT 27/10 A3005 RMK A01 T02700103  RH  035%=      5-min Rain = 0
KSW1 040440Z 10009KT 27/10 A3005 RMK A01 T02690103  RH  035%=      5-min Rain = 0
KSW1 040441Z 10008KT 27/10 A3005 RMK A01 T02690103  RH  035%=      5-min Rain = 0
KSW1 040442Z 10009KT 27/10 A3005 RMK A01 T02690104  RH  036%=      5-min Rain = 0
KSW1 040443Z 10009KT 27/10 A3005 RMK A01 T02690104  RH  036%=      5-min Rain = 0
KSW1 040444Z 09008KT 27/10 A3005 RMK A01 T02690104  RH  036%=      5-min Rain = 0
KSW1 040445Z 10009KT 27/10 A3005 RMK A01 T02690104  RH  036%=      5-min Rain = 0
KSW1 040446Z 10008KT 27/10 A3005 RMK A01 T02700104  RH  035%=      5-min Rain = 0
KSW1 040447Z 09007KT 27/11 A3005 RMK A01 T02710105  RH  035%=      5-min Rain = 0
KSW1 040448Z 09007KT 27/10 A3005 RMK A01 T02700104  RH  035%=      5-min Rain = 0
KSW1 040449Z 09007KT 27/10 A3005 RMK A01 T02680104  RH  036%=      5-min Rain = 0
KSW1 040450Z 09007KT 27/10 A3005 RMK A01 T02670104  RH  036%=      5-min Rain = 0
KSW1 040451Z 09008KT 27/10 A3004 RMK A01 T02650104  RH  036%=      5-min Rain = 0
KSW1 040452Z 09008KT 27/10 A3004 RMK A01 T02650104  RH  037%=      5-min Rain = 0
KSW1 040453Z 09007KT 26/11 A3005 RMK A01 T02640105  RH  037%=      5-min Rain = 0
KSW1 040454Z 09007KT 26/11 A3005 RMK A01 T02640105  RH  037%=      5-min Rain = 0
KSW1 040455Z 09007KT 26/11 A3005 RMK A01 T02640106  RH  037%=      5-min Rain = 0
KSW1 040456Z 09007KT 26/11 A3005 RMK A01 T02630105  RH  037%=      5-min Rain = 0
KSW1 040457Z 09007KT 26/11 A3005 RMK A01 T02630106  RH  037%=      5-min Rain = 0
KSW1 040458Z 10007KT 26/11 A3005 RMK A01 T02630106  RH  037%=      5-min Rain = 0
KSW1 040459Z 09007KT 26/11 A3005 RMK A01 T02630106  RH  037%=      5-min Rain = 0

Page generated in 0.0727 seconds.